Latitude: N 50° 09' 49" Longitude: W 05° 11' 53" Elevation: 168m ASL

There are 12 visitors online

Adverts

<- Previous Day | Today | Next Day ->

All Data for 26 May 2018

Time
A - D
Temp
A - D
Dew Point
A - D
Humidity
A - D
Pressure
A - D
Wind
A - D
Wind Dir Gust
A - D
Rain Rate
A - D
Rain Total
12:54 23.7 16.7 65 1017.5 3.8 N 13.0 0.0 0.0
13:31 23.7 15.5 60 1016.7 11.4 NE 11.4 0.0 0.0
13:33 23.7 15.5 60 1016.8 9.8 NE 11.4 0.0 0.0
12:53 23.6 16.9 66 1017.3 4.5 N 13.0 0.0 0.0
12:55 23.6 16.9 66 1017.4 3.8 N 13.0 0.0 0.0
13:30 23.6 15.7 61 1016.7 6.9 NE 10.7 0.0 0.0
13:34 23.6 15.4 60 1016.9 6.9 N 11.4 0.0 0.0
13:35 23.6 15.4 60 1016.8 3.8 N 11.4 0.0 0.0
12:52 23.5 17.3 68 1017.4 5.4 NE 13.0 0.0 0.0
12:57 23.5 16.8 66 1017.2 9.2 S 9.8 0.0 0.0
12:58 23.5 16.8 66 1017.2 8.3 NE 9.2 0.0 0.0
13:29 23.5 15.8 62 1016.8 6.0 NE 10.7 0.0 0.0
13:26 23.4 15.7 62 1017.0 6.9 NE 10.7 0.0 0.0
13:27 23.4 15.7 62 1016.8 10.7 NE 10.7 0.0 0.0
13:28 23.4 15.5 61 1016.9 9.2 NE 10.7 0.0 0.0
13:36 23.4 15.2 60 1016.7 9.8 NE 11.4 0.0 0.0
12:51 23.3 17.1 68 1017.2 4.5 NE 13.0 0.0 0.0
12:59 23.3 16.4 65 1017.2 8.3 NE 9.2 0.0 0.0
13:23 23.3 15.9 63 1016.9 10.7 NE 10.7 0.0 0.0
13:25 23.3 15.9 63 1016.8 4.5 N 10.7 0.0 0.0
13:37 23.3 15.1 60 1016.8 12.1 NE 12.1 0.0 0.0
13:38 23.3 14.9 59 1016.8 12.1 NE 12.1 0.0 0.0
12:50 23.2 17.2 69 1017.3 6.0 NE 13.0 0.0 0.0
13:00 23.2 16.3 65 1017.2 9.2 NE 9.2 0.0 0.0
13:19 23.2 16.8 67 1017.0 6.0 NE 8.3 0.0 0.0
13:21 23.2 16.3 65 1017.0 6.9 NE 8.3 0.0 0.0
13:22 23.2 16.5 66 1016.8 6.0 NE 8.3 0.0 0.0
12:48 23.1 16.4 66 1017.4 8.3 NE 13.0 0.0 0.0
12:49 23.1 16.7 67 1017.4 8.3 NE 13.0 0.0 0.0
13:01 23.1 16.2 65 1017.1 5.4 NE 9.2 0.0 0.0
13:02 23.1 16.2 65 1017.3 5.4 NE 9.2 0.0 0.0
13:18 23.1 16.7 67 1017.0 4.5 N 8.3 0.0 0.0
13:20 23.1 16.2 65 1017.0 6.9 NE 8.3 0.0 0.0
13:39 23.1 14.9 60 1016.8 7.6 NE 12.1 0.0 0.0
12:40 23.0 16.8 68 1017.4 8.3 NE 13.0 0.0 0.0
12:41 23.0 16.8 68 1017.4 6.0 S 9.2 0.0 0.0
12:42 23.0 16.6 67 1017.3 6.0 NE 9.2 0.0 0.0
12:44 23.0 16.6 67 1017.4 8.3 NE 9.2 0.0 0.0
12:45 23.0 16.3 66 1017.4 8.3 NE 9.2 0.0 0.0
12:46 23.0 16.6 67 1017.3 13.0 NE 13.0 0.0 0.0
12:47 23.0 16.6 67 1017.4 9.8 NE 13.0 0.0 0.0
13:11 23.0 16.1 65 1017.1 5.4 NE 10.7 0.0 0.0
13:13 23.0 16.1 65 1017.0 5.4 NE 10.7 0.0 0.0
13:14 23.0 16.3 66 1017.1 4.5 NE 10.7 0.0 0.0
13:16 23.0 16.6 67 1017.1 6.0 N 8.3 0.0 0.0
13:17 23.0 16.3 66 1017.0 8.3 N 8.3 0.0 0.0
13:40 23.0 14.8 60 1016.6 8.3 NE 12.1 0.0 0.0
13:41 23.0 14.8 60 1016.8 5.4 NE 12.1 0.0 0.0
12:37 22.9 16.7 68 1017.6 4.5 NE 13.0 0.0 0.0
12:38 22.9 16.7 68 1017.3 4.5 NE 13.0 0.0 0.0
12:39 22.9 16.5 67 1017.4 9.2 N 13.0 0.0 0.0
13:09 22.9 16.7 68 1017.0 4.5 NE 10.7 0.0 0.0
13:10 22.9 16.5 67 1017.0 5.4 NE 10.7 0.0 0.0
13:15 22.9 16.5 67 1017.0 6.0 N 8.3 0.0 0.0
13:42 22.9 14.7 60 1016.7 9.2 NE 12.1 0.0 0.0
12:36 22.8 16.8 69 1017.6 6.0 N 13.0 0.0 0.0
13:03 22.8 15.9 65 1017.3 8.3 NE 9.2 0.0 0.0
12:28 22.7 16.5 68 1017.7 8.3 NE 9.8 0.0 0.0
12:30 22.7 16.3 67 1017.8 6.9 NE 9.8 0.0 0.0
12:31 22.7 16.3 67 1017.5 13.0 NE 13.0 0.0 0.0
12:32 22.7 16.3 67 1017.4 2.2 NE 13.0 0.0 0.0
12:33 22.7 16.3 67 1017.5 5.4 N 13.0 0.0 0.0
12:34 22.7 16.5 68 1017.6 9.2 NE 13.0 0.0 0.0
12:35 22.7 16.5 68 1017.6 4.5 NE 13.0 0.0 0.0
13:04 22.7 15.8 65 1017.3 9.2 NE 9.2 0.0 0.0
13:08 22.7 16.5 68 1017.1 8.3 NE 10.7 0.0 0.0
13:44 22.7 14.8 61 1016.7 4.5 NE 12.1 0.0 0.0
13:45 22.7 14.8 61 1016.7 4.5 N 12.1 0.0 0.0
13:46 22.7 14.8 61 1016.7 3.8 N 12.1 0.0 0.0
14:11 22.7 14.3 59 1016.4 8.3 NE 8.3 0.0 0.0
14:12 22.7 14.3 59 1016.3 8.3 NE 8.3 0.0 0.0
14:13 22.7 14.3 59 1016.2 6.0 NE 8.3 0.0 0.0
12:24 22.6 16.4 68 1017.7 9.2 NE 9.8 0.0 0.0
12:25 22.6 16.4 68 1017.8 6.9 NE 9.8 0.0 0.0
12:26 22.6 16.2 67 1017.7 6.9 NE 9.8 0.0 0.0
12:27 22.6 16.4 68 1017.8 8.3 NE 9.8 0.0 0.0
13:07 22.6 16.6 69 1017.1 3.8 NE 10.7 0.0 0.0
13:47 22.6 14.7 61 1016.6 6.0 NE 12.1 0.0 0.0
13:48 22.6 14.7 61 1016.6 4.5 NE 12.1 0.0 0.0
14:09 22.6 14.5 60 1016.5 4.5 NE 7.6 0.0 0.0
14:15 22.6 14.2 59 1016.3 9.2 NE 9.2 0.0 0.0
14:16 22.6 13.9 58 1016.4 9.8 NE 12.1 0.0 0.0
12:02 22.5 16.3 68 1017.8 8.3 SE 8.3 0.0 0.0
12:06 22.5 16.8 70 1017.8 8.3 NE 8.3 0.0 0.0
12:07 22.5 16.5 69 1017.8 6.9 NE 8.3 0.0 0.0
12:08 22.5 16.1 67 1017.8 8.3 NE 8.3 0.0 0.0
12:09 22.5 16.5 69 1017.7 3.1 N 8.3 0.0 0.0
12:20 22.5 17.0 71 1017.7 8.3 NE 9.2 0.0 0.0
12:21 22.5 16.5 69 1017.8 9.2 NE 9.2 0.0 0.0
12:22 22.5 16.5 69 1017.8 9.8 NE 9.8 0.0 0.0
12:23 22.5 16.1 67 1017.8 6.0 NE 9.8 0.0 0.0
13:05 22.5 15.6 65 1017.1 8.3 NE 10.7 0.0 0.0
13:06 22.5 15.6 65 1017.1 6.0 NE 10.7 0.0 0.0
13:49 22.5 14.6 61 1016.6 2.2 NE 9.2 0.0 0.0
13:50 22.5 14.6 61 1016.7 3.1 NE 9.2 0.0 0.0
14:08 22.5 14.6 61 1016.5 4.5 NE 7.6 0.0 0.0
14:18 22.5 13.8 58 1016.3 7.6 N 12.1 0.0 0.0
14:19 22.5 13.8 58 1016.4 6.9 N 12.1 0.0 0.0
11:59 22.4 16.7 70 1017.8 5.4 NE 8.3 0.0 0.0
12:00 22.4 16.7 70 1017.8 4.5 NE 8.3 0.0 0.0
12:01 22.4 16.7 70 1017.9 8.3 N 8.3 0.0 0.0
12:03 22.4 16.2 68 1017.8 5.4 E 8.3 0.0 0.0
12:04 22.4 16.2 68 1017.8 8.3 N 8.3 0.0 0.0
12:05 22.4 16.7 70 1017.8 3.1 N 8.3 0.0 0.0
12:11 22.4 16.5 69 1017.8 9.2 N 9.2 0.0 0.0
12:13 22.4 16.5 69 1017.9 5.4 NE 9.2 0.0 0.0
12:14 22.4 16.5 69 1017.8 3.8 E 9.2 0.0 0.0
12:16 22.4 16.7 70 1017.7 4.5 N 9.2 0.0 0.0
12:18 22.4 16.7 70 1017.9 7.6 NE 9.2 0.0 0.0
12:19 22.4 16.5 69 1017.8 4.5 NE 9.2 0.0 0.0
14:07 22.4 14.5 61 1016.5 7.6 NE 7.6 0.0 0.0
14:20 22.4 13.7 58 1016.4 6.9 NE 12.1 0.0 0.0
11:56 22.3 16.8 71 1017.8 5.4 NE 9.8 0.0 0.0
11:57 22.3 16.8 71 1017.7 4.5 SW 9.8 0.0 0.0
12:17 22.3 16.6 70 1017.8 6.9 NE 9.2 0.0 0.0
13:51 22.3 14.4 61 1016.8 3.8 NW 9.2 0.0 0.0
13:52 22.3 14.7 62 1016.6 3.8 N 9.2 0.0 0.0
13:53 22.3 14.7 62 1016.6 8.3 N 8.3 0.0 0.0
14:06 22.3 14.4 61 1016.3 5.4 NE 6.0 0.0 0.0
11:48 22.2 16.7 71 1017.8 9.8 NE 9.8 0.0 0.0
11:49 22.2 16.5 70 1017.9 7.6 NE 9.8 0.0 0.0
11:50 22.2 16.5 70 1017.8 6.9 NE 9.8 0.0 0.0
11:51 22.2 16.5 70 1017.8 5.4 NE 9.8 0.0 0.0
11:52 22.2 16.7 71 1017.8 7.6 NE 9.8 0.0 0.0
11:53 22.2 16.7 71 1017.8 8.3 NE 9.8 0.0 0.0
11:54 22.2 16.7 71 1017.7 5.4 NE 9.8 0.0 0.0
11:55 22.2 16.7 71 1017.8 5.4 NE 9.8 0.0 0.0
13:55 22.2 14.3 61 1016.8 6.9 NE 8.3 0.0 0.0
13:56 22.2 14.3 61 1016.6 5.4 NE 8.3 0.0 0.0
13:57 22.2 14.3 61 1016.6 5.4 NE 8.3 0.0 0.0
14:21 22.2 13.6 58 1016.5 3.8 NE 12.1 0.0 0.0
14:22 22.2 13.6 58 1016.3 3.8 NE 12.1 0.0 0.0
11:45 22.1 16.6 71 1017.7 7.6 NE 9.2 0.0 0.0
11:46 22.1 16.4 70 1017.7 6.9 NE 9.2 0.0 0.0
11:47 22.1 16.6 71 1017.7 6.9 NE 8.3 0.0 0.0
13:58 22.1 14.2 61 1016.7 6.0 NE 8.3 0.0 0.0
13:59 22.1 14.2 61 1016.5 4.5 NE 8.3 0.0 0.0
14:00 22.1 14.2 61 1016.5 5.4 NE 8.3 0.0 0.0
14:01 22.1 14.2 61 1016.4 5.4 NE 8.3 0.0 0.0
14:03 22.1 14.2 61 1016.4 5.4 NE 8.3 0.0 0.0
14:04 22.1 14.2 61 1016.5 5.4 NE 6.9 0.0 0.0
14:05 22.1 14.2 61 1016.5 5.4 NE 6.9 0.0 0.0
14:24 22.1 13.2 57 1016.3 3.8 NE 12.1 0.0 0.0
11:42 22.0 16.3 70 1017.8 6.9 NE 10.7 0.0 0.0
11:43 22.0 16.3 70 1017.7 5.4 E 10.7 0.0 0.0
11:44 22.0 16.7 72 1017.7 3.8 NE 9.2 0.0 0.0
11:40 21.9 16.6 72 1017.9 6.9 NE 10.7 0.0 0.0
14:26 21.9 13.0 57 1016.4 4.5 NE 12.1 0.0 0.0
11:38 21.8 16.5 72 1017.8 6.0 NE 10.7 0.0 0.0
11:39 21.8 16.5 72 1017.9 6.0 NE 10.7 0.0 0.0
14:27 21.8 12.9 57 1016.5 7.6 NE 7.6 0.0 0.0
11:35 21.7 16.4 72 1017.9 9.2 NE 10.7 0.0 0.0
11:36 21.7 16.2 71 1017.9 9.2 NE 10.7 0.0 0.0
11:37 21.7 16.4 72 1017.8 6.9 NE 10.7 0.0 0.0
14:28 21.7 12.8 57 1016.4 5.4 NE 7.6 0.0 0.0
14:29 21.7 12.8 57 1016.2 6.9 NE 7.6 0.0 0.0
11:33 21.6 16.4 72 1017.9 10.7 NE 10.7 0.0 0.0
11:34 21.6 16.6 73 1018.2 6.0 NE 10.7 0.0 0.0
14:31 21.6 13.0 58 1016.3 4.5 NE 7.6 0.0 0.0
15:28 21.6 15.0 66 1015.5 5.4 NE 9.2 0.0 0.0
15:29 21.6 15.0 66 1015.4 5.4 N 9.2 0.0 0.0
15:32 21.6 14.8 65 1015.4 5.4 NW 9.2 0.0 0.0
11:31 21.5 16.7 74 1017.9 7.6 NE 10.7 0.0 0.0
11:32 21.5 16.5 73 1017.9 9.2 NE 10.7 0.0 0.0
14:32 21.5 12.9 58 1016.4 6.0 NE 7.6 0.0 0.0
14:33 21.5 12.9 58 1016.4 3.1 NE 7.6 0.0 0.0
15:22 21.5 15.1 67 1015.6 7.6 NW 8.3 0.0 0.0
15:23 21.5 15.4 68 1015.6 5.4 NW 8.3 0.0 0.0
15:24 21.5 15.1 67 1015.7 3.8 NW 8.3 0.0 0.0
15:25 21.5 15.1 67 1015.5 7.6 NW 9.2 0.0 0.0
15:26 21.5 15.1 67 1015.6 6.0 N 9.2 0.0 0.0
15:27 21.5 14.9 66 1015.6 3.1 N 9.2 0.0 0.0
15:31 21.5 14.7 65 1015.4 6.0 N 9.2 0.0 0.0
15:33 21.5 14.7 65 1015.5 8.3 NE 9.2 0.0 0.0
15:34 21.5 14.4 64 1015.5 6.9 N 9.2 0.0 0.0
15:35 21.5 14.4 64 1015.5 5.4 N 8.3 0.0 0.0
15:36 21.5 14.7 65 1015.6 6.0 N 8.3 0.0 0.0
15:37 21.5 14.7 65 1015.5 3.8 NW 8.3 0.0 0.0
11:30 21.4 16.4 73 1018.0 5.4 NE 10.7 0.0 0.0
14:34 21.4 12.8 58 1016.2 4.5 NE 7.6 0.0 0.0
15:20 21.4 15.0 67 1015.7 5.4 NW 11.4 0.0 0.0
15:38 21.4 14.6 65 1015.6 5.4 N 8.3 0.0 0.0
15:39 21.4 14.6 65 1015.5 4.5 NE 8.3 0.0 0.0
11:24 21.3 16.3 73 1018.0 4.5 NW 10.7 0.0 0.0
11:26 21.3 16.1 72 1018.0 9.2 NE 10.7 0.0 0.0
11:28 21.3 16.3 73 1017.9 6.0 N 10.7 0.0 0.0
11:29 21.3 16.3 73 1018.0 3.1 N 10.7 0.0 0.0
14:35 21.3 12.7 58 1016.4 4.5 NE 7.6 0.0 0.0
15:17 21.3 15.2 68 1015.6 6.0 NE 11.4 0.0 0.0
15:18 21.3 15.2 68 1015.6 6.0 NW 11.4 0.0 0.0
15:19 21.3 14.9 67 1015.6 7.6 NW 11.4 0.0 0.0
15:40 21.3 14.5 65 1015.5 7.6 E 8.3 0.0 0.0
15:42 21.3 14.5 65 1015.6 7.6 NW 8.3 0.0 0.0
15:43 21.3 14.5 65 1015.5 6.9 N 8.3 0.0 0.0
11:21 21.2 16.2 73 1018.0 3.1 NE 11.4 0.0 0.0
11:22 21.2 16.2 73 1018.1 10.7 NE 11.4 0.0 0.0
11:23 21.2 16.4 74 1018.0 2.2 NE 11.4 0.0 0.0
11:25 21.2 16.0 72 1018.0 10.7 NE 10.7 0.0 0.0
14:36 21.2 12.6 58 1016.4 5.4 NE 7.6 0.0 0.0
14:37 21.2 12.6 58 1016.3 5.4 NE 6.9 0.0 0.0
15:15 21.2 15.1 68 1015.6 8.3 NW 11.4 0.0 0.0
15:16 21.2 15.1 68 1015.6 6.0 NE 11.4 0.0 0.0
15:44 21.2 14.4 65 1015.5 6.9 NW 7.6 0.0 0.0
15:45 21.2 14.4 65 1015.6 7.6 N 7.6 0.0 0.0
11:16 21.1 16.1 73 1017.9 9.2 NE 11.4 0.0 0.0
11:17 21.1 16.3 74 1017.9 8.3 N 11.4 0.0 0.0
11:18 21.1 16.3 74 1018.0 6.0 N 11.4 0.0 0.0
11:19 21.1 16.3 74 1017.9 7.6 NE 11.4 0.0 0.0
11:20 21.1 16.1 73 1018.0 10.7 N 11.4 0.0 0.0
14:39 21.1 12.5 58 1016.3 6.0 NE 6.9 0.0 0.0
14:40 21.1 12.5 58 1016.1 5.4 NE 6.9 0.0 0.0
14:41 21.1 12.8 59 1016.3 4.5 NE 6.9 0.0 0.0
15:08 21.1 14.7 67 1015.7 8.3 N 9.8 0.0 0.0
15:10 21.1 15.0 68 1015.8 10.7 N 10.7 0.0 0.0
15:11 21.1 14.7 67 1015.8 11.4 NE 11.4 0.0 0.0
15:12 21.1 14.7 67 1015.7 7.6 N 11.4 0.0 0.0
15:13 21.1 14.7 67 1015.7 6.9 NW 11.4 0.0 0.0
15:14 21.1 14.7 67 1015.7 8.3 NW 11.4 0.0 0.0
15:46 21.1 14.3 65 1015.6 5.4 NE 7.6 0.0 0.0
15:47 21.1 14.3 65 1015.7 5.4 NE 7.6 0.0 0.0
15:48 21.1 14.3 65 1015.6 4.5 N 7.6 0.0 0.0
11:12 21.0 16.4 75 1018.0 11.4 NE 11.4 0.0 0.0
11:13 21.0 16.2 74 1018.0 8.3 NE 11.4 0.0 0.0
11:14 21.0 16.2 74 1018.0 9.2 NE 11.4 0.0 0.0
11:15 21.0 16.0 73 1018.0 7.6 NE 11.4 0.0 0.0
14:42 21.0 12.7 59 1016.1 4.5 NE 6.9 0.0 0.0
14:43 21.0 12.7 59 1016.3 6.0 N 6.9 0.0 0.0
14:45 21.0 12.7 59 1016.2 6.0 NE 7.6 0.0 0.0
14:59 21.0 13.0 60 1015.8 7.6 N 8.3 0.0 0.0
15:00 21.0 13.2 61 1015.8 6.0 NE 8.3 0.0 0.0
15:02 21.0 13.2 61 1015.7 6.0 NE 8.3 0.0 0.0
15:03 21.0 13.2 61 1015.7 6.0 NE 7.6 0.0 0.0
15:04 21.0 13.2 61 1015.8 6.0 NE 7.6 0.0 0.0
15:05 21.0 13.2 61 1015.7 6.0 NE 7.6 0.0 0.0
15:06 21.0 14.7 67 1015.8 8.3 NW 8.3 0.0 0.0
15:07 21.0 14.7 67 1015.8 9.2 NW 9.2 0.0 0.0
15:49 21.0 14.2 65 1015.5 8.3 NW 8.3 0.0 0.0
15:51 21.0 14.4 66 1015.7 3.8 NE 8.3 0.0 0.0
15:52 21.0 14.4 66 1015.6 6.0 N 8.3 0.0 0.0
11:11 20.9 16.3 75 1017.9 5.4 NE 8.3 0.0 0.0
14:46 20.9 12.6 59 1016.2 7.6 NE 7.6 0.0 0.0
14:47 20.9 12.6 59 1016.0 5.4 NE 7.6 0.0 0.0
14:48 20.9 12.6 59 1016.1 4.5 NE 7.6 0.0 0.0
14:49 20.9 12.9 60 1016.1 6.0 NE 7.6 0.0 0.0
14:50 20.9 12.9 60 1016.1 8.3 NE 8.3 0.0 0.0
14:51 20.9 12.9 60 1015.9 6.9 N 8.3 0.0 0.0
14:53 20.9 12.9 60 1016.0 7.6 NE 8.3 0.0 0.0
14:54 20.9 12.9 60 1016.1 6.9 NE 8.3 0.0 0.0
14:55 20.9 12.9 60 1015.8 5.4 NE 8.3 0.0 0.0
14:56 20.9 12.9 60 1016.0 7.6 N 8.3 0.0 0.0
14:57 20.9 12.9 60 1016.0 5.4 N 8.3 0.0 0.0
14:58 20.9 13.1 61 1015.8 6.0 N 8.3 0.0 0.0
15:53 20.9 14.3 66 1015.6 3.8 NW 8.3 0.0 0.0
15:54 20.9 14.6 67 1015.6 7.6 NW 8.3 0.0 0.0
15:56 20.9 14.8 68 1015.6 4.5 NW 8.3 0.0 0.0
15:59 20.9 14.8 68 1015.7 8.3 N 8.3 0.0 0.0
16:01 20.9 14.8 68 1015.8 5.4 NW 9.8 0.0 0.0
16:02 20.9 14.8 68 1015.8 5.4 NW 9.8 0.0 0.0
16:03 20.9 14.8 68 1015.7 5.4 NW 9.8 0.0 0.0
16:05 20.9 14.8 68 1015.7 5.4 NW 9.8 0.0 0.0
11:09 20.8 16.4 76 1018.0 2.2 NE 8.3 0.0 0.0
15:57 20.8 14.7 68 1015.7 3.8 NW 8.3 0.0 0.0
15:58 20.8 14.9 69 1015.8 3.8 E 8.3 0.0 0.0
16:00 20.8 14.7 68 1015.7 9.8 NW 9.8 0.0 0.0
16:06 20.8 14.7 68 1015.6 3.8 NE 9.8 0.0 0.0
16:07 20.8 14.7 68 1015.6 5.4 NW 9.8 0.0 0.0
11:08 20.7 16.1 75 1018.0 7.6 NE 9.8 0.0 0.0
16:09 20.7 14.8 69 1015.8 4.5 NW 9.8 0.0 0.0
16:10 20.7 14.8 69 1015.8 9.2 N 9.2 0.0 0.0
11:06 20.6 16.2 76 1017.9 8.3 NE 9.8 0.0 0.0
11:07 20.6 16.2 76 1018.0 6.0 NE 9.8 0.0 0.0
16:12 20.6 14.5 68 1015.9 5.4 NE 9.2 0.0 0.0
16:13 20.6 14.5 68 1015.8 4.5 NE 9.2 0.0 0.0
16:14 20.6 14.7 69 1015.8 6.9 NE 9.2 0.0 0.0
16:16 20.6 14.7 69 1015.8 4.5 NE 9.2 0.0 0.0
16:17 20.5 14.6 69 1015.8 5.4 N 9.2 0.0 0.0
16:19 20.5 14.6 69 1015.7 6.9 N 9.2 0.0 0.0
16:20 20.5 14.6 69 1015.8 4.5 N 9.2 0.0 0.0
16:21 20.5 14.6 69 1015.9 4.5 NE 6.9 0.0 0.0
16:22 20.5 14.6 69 1015.7 4.5 NE 6.9 0.0 0.0
16:24 20.5 14.6 69 1015.8 8.3 N 8.3 0.0 0.0
16:25 20.4 14.5 69 1015.8 6.0 NE 8.3 0.0 0.0
16:26 20.4 14.5 69 1015.9 6.9 NE 8.3 0.0 0.0
16:27 20.4 14.8 70 1015.8 5.4 N 8.3 0.0 0.0
16:28 20.4 14.8 70 1015.8 3.1 N 8.3 0.0 0.0
16:30 20.3 14.7 70 1015.8 5.4 N 8.3 0.0 0.0
16:31 20.3 14.7 70 1015.8 5.4 NE 8.3 0.0 0.0
16:32 20.3 14.7 70 1015.8 4.5 NE 8.3 0.0 0.0
16:33 20.3 14.7 70 1015.8 3.8 N 8.3 0.0 0.0
11:01 20.2 16.1 77 1017.9 4.5 NE 11.4 0.0 0.0
11:02 20.2 16.1 77 1018.0 4.5 NE 11.4 0.0 0.0
11:03 20.2 16.1 77 1017.9 4.5 NE 11.4 0.0 0.0
11:04 20.2 16.1 77 1018.1 4.5 NE 9.8 0.0 0.0
11:05 20.2 16.1 77 1017.9 4.5 NE 9.8 0.0 0.0
16:34 20.2 14.6 70 1015.8 3.8 N 6.9 0.0 0.0
16:36 20.2 14.6 70 1015.7 0.7 N 5.4 0.0 0.0
16:37 20.2 14.6 70 1015.7 3.8 N 5.4 0.0 0.0
16:38 20.2 14.6 70 1015.6 3.1 N 5.4 0.0 0.0
10:58 20.1 16.0 77 1018.1 9.2 NE 11.4 0.0 0.0
10:59 20.1 16.0 77 1018.1 9.8 NE 11.4 0.0 0.0
16:39 20.1 14.7 71 1015.7 3.1 N 5.4 0.0 0.0
16:40 20.1 14.7 71 1015.7 3.1 N 5.4 0.0 0.0
16:42 20.1 14.7 71 1015.7 3.8 N 4.5 0.0 0.0
10:56 20.0 15.9 77 1017.8 8.3 NE 13.6 0.0 0.0
10:57 20.0 15.9 77 1018.0 9.8 NE 11.4 0.0 0.0
16:43 20.0 14.6 71 1015.7 3.8 NW 5.4 0.0 0.0
16:44 20.0 14.6 71 1015.7 4.5 NW 5.4 0.0 0.0
16:45 20.0 14.6 71 1015.6 6.0 NW 6.0 0.0 0.0
16:46 20.0 14.6 71 1015.6 3.8 NW 6.0 0.0 0.0
16:48 20.0 14.6 71 1015.7 3.1 NW 6.0 0.0 0.0
10:51 19.9 15.8 77 1018.0 9.2 E 13.6 0.0 0.0
10:52 19.9 15.8 77 1018.0 9.8 N 13.6 0.0 0.0
10:53 19.9 15.8 77 1018.0 11.4 NE 13.6 0.0 0.0
10:54 19.9 15.8 77 1017.9 9.8 NE 13.6 0.0 0.0
10:55 19.9 15.8 77 1017.9 8.3 NE 13.6 0.0 0.0
16:49 19.9 14.5 71 1015.7 3.1 NW 6.0 0.0 0.0
16:51 19.9 14.7 72 1015.5 4.5 NW 6.0 0.0 0.0
16:52 19.9 14.7 72 1015.6 5.4 N 6.0 0.0 0.0
16:59 19.9 14.7 72 1015.3 5.4 NW 6.0 0.0 0.0
10:46 19.8 15.9 78 1017.9 7.6 N 11.4 0.0 0.0
10:47 19.8 15.7 77 1017.9 13.6 NE 13.6 0.0 0.0
10:48 19.8 15.7 77 1017.9 10.7 NE 13.6 0.0 0.0
10:49 19.8 15.7 77 1018.1 6.0 NE 13.6 0.0 0.0
10:50 19.8 15.7 77 1018.0 9.8 NE 13.6 0.0 0.0
16:54 19.8 14.6 72 1015.6 6.0 N 6.0 0.0 0.0
16:55 19.8 14.6 72 1015.5 5.4 NW 6.0 0.0 0.0
16:56 19.8 14.6 72 1015.4 6.0 NW 6.0 0.0 0.0
16:57 19.8 14.6 72 1015.4 3.8 NW 6.0 0.0 0.0
17:00 19.8 14.6 72 1015.4 6.0 NW 6.0 0.0 0.0
17:01 19.8 14.6 72 1015.3 5.4 N 6.0 0.0 0.0
17:03 19.8 14.6 72 1015.4 5.4 N 6.0 0.0 0.0
17:04 19.8 14.6 72 1015.5 5.4 N 6.0 0.0 0.0
17:05 19.8 14.6 72 1015.5 5.4 N 6.0 0.0 0.0
10:43 19.7 16.0 79 1018.1 10.7 NE 14.5 0.0 0.0
10:44 19.7 16.0 79 1017.9 9.8 E 14.5 0.0 0.0
17:06 19.7 14.5 72 1015.5 3.1 N 6.0 0.0 0.1
10:41 19.6 15.9 79 1017.9 7.6 NE 14.5 0.0 0.0
10:42 19.6 15.9 79 1018.0 9.8 N 14.5 0.0 0.0
17:07 19.6 14.6 73 1015.5 3.8 N 6.0 1.5 0.2
17:08 19.6 14.6 73 1015.5 2.2 N 6.0 2.3 0.3
17:10 19.6 14.6 73 1015.5 3.1 N 6.0 3.8 0.3
10:35 19.5 16.0 80 1017.8 14.5 NE 14.5 0.0 0.0
10:36 19.5 15.8 79 1017.9 10.7 NE 14.5 0.0 0.0
10:37 19.5 15.8 79 1017.9 9.8 N 14.5 0.0 0.0
10:38 19.5 15.6 78 1017.8 7.6 NE 14.5 0.0 0.0
10:39 19.5 15.8 79 1017.9 6.0 E 14.5 0.0 0.0
10:40 19.5 15.8 79 1018.1 9.8 NW 14.5 0.0 0.0
17:11 19.5 14.5 73 1015.6 3.8 N 5.4 4.5 0.4
17:12 19.5 14.5 73 1015.4 2.2 N 5.4 3.8 0.4
10:32 19.4 16.1 81 1018.0 9.2 N 14.5 0.0 0.0
10:33 19.4 16.1 81 1017.9 8.3 N 14.5 0.0 0.0
10:34 19.4 16.1 81 1017.9 9.8 N 14.5 0.0 0.0
17:13 19.4 14.7 74 1015.4 0.7 N 5.4 3.8 0.5
17:14 19.4 14.7 74 1015.3 3.8 N 5.4 3.8 0.6
10:29 19.3 16.2 82 1018.1 9.8 NE 14.5 0.0 0.0
10:31 19.3 16.0 81 1017.9 9.8 E 14.5 0.0 0.0
17:15 19.3 14.6 74 1015.3 3.8 N 5.4 3.8 0.7
10:27 19.2 16.3 83 1017.8 12.1 SW 14.5 0.0 0.0
10:28 19.2 16.3 83 1018.0 6.0 NE 14.5 0.0 0.0
17:16 19.2 14.7 75 1015.4 3.1 N 3.8 3.8 0.7
17:17 19.2 14.7 75 1015.4 1.6 N 3.8 3.0 0.8
17:21 19.2 14.7 75 1015.3 1.6 N 3.8 1.5 0.8
10:25 19.1 16.3 84 1017.8 14.5 N 14.5 0.0 0.0
10:26 19.1 16.2 83 1018.0 4.5 S 14.5 0.0 0.0
17:19 19.1 14.6 75 1015.4 0.7 N 3.8 2.3 0.8
17:20 19.1 14.6 75 1015.4 1.6 N 3.8 2.3 0.8
10:21 19.0 16.4 85 1018.0 9.2 NE 13.6 0.0 0.0
10:23 19.0 16.2 84 1017.8 12.1 NE 13.6 0.0 0.0
10:24 19.0 16.2 84 1017.9 10.7 NE 13.6 0.0 0.0
10:16 18.9 16.7 87 1017.8 7.6 S 11.4 0.0 0.0
10:17 18.9 16.7 87 1018.0 1.6 S 11.4 0.0 0.0
10:18 18.9 16.5 86 1017.8 9.8 NE 11.4 0.0 0.0
10:19 18.9 16.5 86 1017.8 13.6 NE 13.6 0.0 0.0
10:20 18.9 16.3 85 1018.0 13.0 NE 13.6 0.0 0.0
10:22 18.9 16.1 84 1017.9 13.0 NE 13.6 0.0 0.0
17:22 18.9 14.6 76 1015.5 3.1 N 3.8 2.3 0.9
17:23 18.9 14.6 76 1015.5 3.1 N 3.8 1.5 0.9
10:14 18.8 16.6 87 1017.9 6.9 NE 11.4 0.0 0.0
17:24 18.8 14.5 76 1015.5 4.5 NW 4.5 1.5 0.9
17:25 18.8 14.5 76 1015.3 3.8 NW 4.5 0.8 0.9
17:27 18.8 14.7 77 1015.4 3.1 NW 4.5 0.0 0.9
10:11 18.7 16.7 88 1018.0 6.9 SE 12.1 0.0 0.0
10:13 18.7 16.7 88 1017.8 7.6 N 11.4 0.0 0.0
17:28 18.7 14.6 77 1015.3 2.2 NW 4.5 0.0 0.9
17:29 18.7 14.6 77 1015.4 3.8 NW 4.5 0.0 0.9
10:09 18.6 16.8 89 1018.1 11.4 NE 12.1 0.0 0.0
10:10 18.6 16.8 89 1018.0 8.3 N 12.1 0.0 0.0
17:30 18.6 14.7 78 1015.3 3.8 NW 4.5 0.0 0.9
17:31 18.6 14.7 78 1015.4 3.1 NW 4.5 0.0 0.9
17:32 18.6 14.7 78 1015.3 5.4 N 5.4 0.0 0.9
17:33 18.6 14.7 78 1015.3 3.1 N 5.4 0.0 0.9
17:34 18.6 14.7 78 1015.4 1.6 N 5.4 0.0 0.9
17:35 18.5 14.8 79 1015.4 2.2 N 5.4 0.0 0.9
17:36 18.5 14.8 79 1015.2 2.2 N 5.4 0.8 1.0
17:37 18.5 14.8 79 1015.3 3.1 N 5.4 1.5 1.1
17:39 18.5 14.8 79 1015.1 3.8 NW 5.4 3.0 1.1
10:06 18.4 16.6 89 1018.0 6.0 NE 12.1 0.0 0.0
10:07 18.4 16.6 89 1018.0 3.8 NE 12.1 0.0 0.0
17:40 18.4 14.7 79 1015.2 3.1 NW 5.4 3.8 1.2
17:41 18.4 14.7 79 1015.0 3.8 NE 5.4 3.8 1.3
10:05 18.3 16.6 90 1018.1 3.8 NE 13.6 0.0 0.0
17:42 18.3 14.8 80 1015.1 3.1 NE 5.4 3.0 1.3
17:43 18.3 14.8 80 1015.0 3.1 NE 3.8 2.3 1.3
17:44 18.3 14.8 80 1015.0 1.6 NE 3.8 1.5 1.3
10:04 18.2 16.5 90 1018.1 5.4 NE 17.4 0.0 0.0
17:45 18.2 14.7 80 1015.0 4.5 NE 5.4 0.8 1.3
10:00 18.1 16.4 90 1018.0 8.3 NE 17.4 0.0 0.0
10:01 18.1 16.4 90 1018.1 6.9 NE 17.4 0.0 0.0
10:02 18.1 16.4 90 1018.0 12.1 NE 17.4 0.0 0.0
10:03 18.1 16.4 90 1018.2 7.6 NE 17.4 0.0 0.0
17:46 18.1 14.6 80 1015.0 5.4 NE 5.4 0.0 1.3
17:47 18.1 14.8 81 1014.9 3.1 NE 5.4 0.0 1.3
17:49 18.1 14.8 81 1014.9 3.8 NE 5.4 0.0 1.3
09:58 18.0 16.5 91 1018.0 6.9 NE 17.4 0.0 0.0
09:59 18.0 16.5 91 1018.0 10.7 E 17.4 0.0 0.0
17:50 18.0 14.7 81 1014.8 3.8 NW 5.4 0.0 1.3
17:51 18.0 14.7 81 1014.7 4.5 NW 5.4 0.0 1.3
17:52 18.0 14.7 81 1014.7 4.5 NW 5.4 0.0 1.3
09:52 17.9 16.8 93 1018.0 9.8 NE 11.4 0.0 0.0
09:53 17.9 16.8 93 1018.0 11.4 N 11.4 0.0 0.0
09:54 17.9 16.6 92 1018.0 17.4 NE 17.4 0.0 0.0
09:56 17.9 16.4 91 1017.9 13.6 NE 17.4 0.0 0.0
09:57 17.9 16.4 91 1018.0 9.8 N 17.4 0.0 0.0
17:53 17.9 14.6 81 1014.7 5.4 NW 5.4 0.0 1.3
17:54 17.9 14.8 82 1014.6 6.9 NW 6.9 0.0 1.3
17:55 17.9 14.8 82 1014.4 4.5 NW 6.9 0.0 1.3
17:57 17.9 14.8 82 1014.3 3.8 NW 6.9 1.5 1.4
09:51 17.8 16.7 93 1018.1 5.4 NE 11.4 0.0 0.0
17:58 17.8 14.7 82 1014.4 7.6 NW 7.6 1.5 1.4
17:59 17.8 14.7 82 1014.3 3.8 NW 7.6 1.5 1.4
09:49 17.7 16.6 93 1018.1 6.9 NE 12.1 0.0 0.0
09:50 17.7 16.6 93 1018.1 9.2 NE 11.4 0.0 0.0
18:00 17.7 14.6 82 1014.4 6.0 NW 7.6 1.5 1.4
18:01 17.7 14.6 82 1014.4 6.0 NW 7.6 0.8 1.4
18:03 17.7 14.6 82 1014.4 6.0 NW 7.6 0.0 1.4
18:04 17.7 14.6 82 1014.4 6.0 NW 7.6 0.0 1.4
09:47 17.6 16.6 94 1018.2 6.0 NE 13.6 0.0 0.0
18:06 17.6 14.7 83 1014.3 6.0 NW 7.6 0.0 1.4
18:07 17.6 14.7 83 1014.4 6.0 W 7.6 0.0 1.4
18:08 17.6 14.7 83 1014.3 6.9 NW 7.6 0.0 1.4
09:45 17.5 16.5 94 1018.0 6.0 E 13.6 0.0 0.0
09:46 17.5 16.5 94 1018.0 6.9 NE 13.6 0.0 0.0
18:10 17.5 14.8 84 1014.3 3.1 NW 7.6 0.0 1.4
18:11 17.5 14.8 84 1014.3 3.1 NW 7.6 0.0 1.4
18:12 17.5 14.8 84 1014.2 7.6 NW 7.6 0.0 1.4
18:14 17.5 14.8 84 1014.1 6.0 NW 7.6 0.0 1.4
18:15 17.5 14.8 84 1014.1 7.6 N 7.6 0.0 1.4
18:17 17.5 15.0 85 1013.9 4.5 NW 7.6 0.0 1.4
18:18 17.5 15.0 85 1014.0 6.9 N 7.6 0.0 1.4
18:20 17.5 15.0 85 1014.1 8.3 NW 8.3 0.0 1.4
18:21 17.5 15.0 85 1014.0 5.4 NW 8.3 0.0 1.4
18:22 17.5 15.0 85 1014.2 3.8 NW 8.3 0.0 1.4
18:23 17.5 15.0 85 1014.0 3.8 N 8.3 0.0 1.4
18:24 17.5 15.0 85 1013.9 4.5 NW 8.3 0.0 1.4
18:25 17.5 15.0 85 1014.0 3.8 NW 8.3 0.0 1.4
18:26 17.5 15.1 86 1014.0 3.8 NW 8.3 0.0 1.4
18:27 17.5 15.1 86 1013.9 6.0 NW 8.3 0.0 1.4
18:29 17.5 15.1 86 1013.7 6.0 NW 8.3 0.0 1.4
18:30 17.5 15.1 86 1013.9 4.5 N 8.3 0.0 1.4
18:31 17.5 15.1 86 1013.8 2.2 N 6.0 0.0 1.4
18:32 17.5 15.1 86 1013.9 3.1 N 6.0 0.0 1.4
18:33 17.5 15.1 86 1014.0 5.4 N 6.0 0.0 1.4
18:34 17.5 15.1 86 1014.0 6.0 N 6.0 0.0 1.4
18:35 17.5 15.1 86 1014.1 7.6 N 7.6 0.0 1.4
18:36 17.5 15.1 86 1013.9 8.3 N 8.3 0.0 1.4
09:44 17.4 16.4 94 1018.1 9.2 NE 13.6 0.0 0.0
18:38 17.4 15.0 86 1014.1 9.2 NE 9.2 0.0 1.4
18:39 17.4 15.0 86 1014.0 9.8 NW 9.8 0.0 1.4
18:40 17.4 15.0 86 1013.9 6.0 NW 9.8 0.0 1.4
18:41 17.4 15.0 86 1014.0 5.4 NW 9.8 0.0 1.4
18:42 17.4 15.0 86 1013.9 6.0 NW 9.8 0.0 1.4
09:42 17.3 16.5 95 1018.0 9.8 NE 13.6 0.0 0.0
09:43 17.3 16.5 95 1018.1 6.9 NE 13.6 0.0 0.0
18:43 17.3 15.1 87 1013.7 8.3 NW 9.8 0.0 1.4
18:44 17.3 15.1 87 1013.8 5.4 N 10.7 0.0 1.4
18:45 17.3 15.1 87 1014.0 3.1 N 10.7 0.0 1.4
18:46 17.3 15.1 87 1014.0 7.6 N 10.7 0.0 1.4
18:48 17.3 15.1 87 1013.9 5.4 NW 10.7 0.0 1.4
19:33 17.3 15.5 89 1013.5 6.9 N 9.2 0.0 1.4
19:35 17.3 15.5 89 1013.4 6.9 NW 10.7 0.0 1.4
09:40 17.2 16.4 95 1017.9 6.9 NE 13.6 0.0 0.0
09:41 17.2 16.4 95 1018.0 8.3 NE 13.6 0.0 0.0
18:49 17.2 15.0 87 1013.8 5.4 N 10.7 0.0 1.4
18:50 17.2 15.0 87 1013.8 6.0 NW 10.7 0.0 1.4
18:51 17.2 15.0 87 1013.8 7.6 N 10.7 0.0 1.4
18:52 17.2 15.0 87 1013.7 3.1 N 10.7 0.0 1.4
18:53 17.2 15.0 87 1013.4 7.6 NW 10.7 0.0 1.4
18:54 17.2 15.0 87 1013.7 4.5 N 10.7 0.0 1.4
18:55 17.2 15.0 87 1013.6 6.0 N 7.6 0.0 1.4
18:56 17.2 15.0 87 1013.7 6.9 N 9.2 0.0 1.4
18:57 17.2 15.0 87 1013.8 8.3 N 9.2 0.0 1.4
18:58 17.2 15.0 87 1013.5 6.0 N 9.2 0.0 1.4
18:59 17.2 15.0 87 1013.5 8.3 N 9.2 0.0 1.4
19:00 17.2 15.2 88 1013.6 9.8 NW 9.8 0.0 1.4
19:02 17.2 15.2 88 1013.6 9.8 NW 9.8 0.0 1.4
19:03 17.2 15.2 88 1013.6 9.8 NW 9.8 0.0 1.4
19:04 17.2 15.2 88 1013.6 9.8 NW 9.8 0.0 1.4
19:05 17.2 15.2 88 1013.6 9.8 NW 9.8 0.0 1.4
19:06 17.2 15.2 88 1013.5 5.4 N 9.8 0.0 1.4
19:08 17.2 15.2 88 1013.4 6.9 NW 9.8 0.0 1.4
19:09 17.2 15.2 88 1013.4 6.0 NW 9.8 0.0 1.4
19:11 17.2 15.2 88 1013.6 3.8 NE 9.8 0.0 1.4
19:12 17.2 15.2 88 1013.5 7.6 NW 9.8 0.0 1.4
19:13 17.2 15.2 88 1013.6 7.6 N 9.8 0.0 1.4
19:14 17.2 15.2 88 1013.6 7.6 W 9.8 0.0 1.4
19:15 17.2 15.2 88 1013.6 2.2 N 9.8 0.0 1.4
19:16 17.2 15.2 88 1013.6 7.6 NE 7.6 0.0 1.4
19:17 17.2 15.2 88 1013.6 8.3 N 8.3 0.0 1.4
19:19 17.2 15.2 88 1013.7 6.0 N 8.3 0.0 1.4
19:20 17.2 15.2 88 1013.6 7.6 SW 8.3 0.0 1.4
19:22 17.2 15.2 88 1013.5 6.9 NE 8.3 0.0 1.4
19:23 17.2 15.2 88 1013.5 6.9 NE 8.3 0.0 1.4
19:24 17.2 15.2 88 1013.5 7.6 N 8.3 0.0 1.4
19:25 17.2 15.2 88 1013.5 6.0 N 8.3 0.0 1.4
19:27 17.2 15.2 88 1013.5 9.2 N 9.2 0.0 1.4
19:28 17.2 15.2 88 1013.4 3.8 N 9.2 0.0 1.4
19:29 17.2 15.4 89 1013.4 9.2 N 9.2 0.0 1.4
19:31 17.2 15.4 89 1013.5 3.8 NE 9.2 0.0 1.4
19:32 17.2 15.4 89 1013.4 4.5 NW 9.2 0.0 1.4
19:36 17.2 15.4 89 1013.4 6.9 N 10.7 0.0 1.4
19:37 17.2 15.4 89 1013.5 6.0 NW 10.7 0.0 1.4
19:38 17.2 15.4 89 1013.4 3.8 N 10.7 0.0 1.4
19:40 17.2 15.4 89 1013.4 3.8 NE 10.7 0.0 1.4
19:41 17.2 15.4 89 1013.4 4.5 NE 10.7 0.0 1.4
19:42 17.2 15.4 89 1013.3 3.8 NE 10.7 0.0 1.4
19:43 17.2 15.4 89 1013.5 8.3 NE 10.7 0.0 1.4
19:45 17.2 15.4 89 1013.3 5.4 N 8.3 0.0 1.4
19:46 17.2 15.4 89 1013.4 2.2 N 8.3 0.0 1.4
19:47 17.2 15.4 89 1013.3 3.1 N 8.3 0.0 1.4
19:49 17.2 15.4 89 1013.4 8.3 N 8.3 0.0 1.4
19:50 17.2 15.4 89 1013.3 6.0 NE 8.3 0.0 1.4
09:36 17.1 16.5 96 1018.2 7.6 NE 12.1 0.0 0.0
09:37 17.1 16.5 96 1017.9 9.2 NE 12.1 0.0 0.0
09:39 17.1 16.3 95 1017.9 13.6 NE 13.6 0.0 0.0
19:51 17.1 15.3 89 1013.3 3.1 N 8.3 0.0 1.4
19:52 17.1 15.3 89 1013.3 6.9 N 8.3 0.0 1.4
19:53 17.1 15.3 89 1013.4 6.0 N 8.3 0.0 1.4
19:55 17.1 15.3 89 1013.2 6.0 NE 8.3 0.0 1.4
19:56 17.1 15.3 89 1013.4 4.5 N 8.3 0.0 1.4
19:57 17.1 15.3 89 1013.2 5.4 NE 8.3 0.0 1.4
19:58 17.1 15.3 89 1013.2 4.5 N 8.3 0.0 1.4
19:59 17.1 15.3 89 1013.3 9.2 N 9.2 0.0 1.4
20:00 17.1 15.3 89 1013.1 8.3 N 9.2 0.0 1.4
20:01 17.1 15.3 89 1013.1 9.8 N 9.8 0.0 1.4
20:02 17.1 15.3 89 1013.2 6.9 N 9.8 0.0 1.4
20:03 17.1 15.3 89 1013.1 3.8 N 9.8 0.0 1.4
20:04 17.1 15.3 89 1013.0 5.4 NE 9.8 0.0 1.4
20:06 17.1 15.3 89 1013.1 7.6 N 9.8 0.0 1.4
20:07 17.1 15.3 89 1013.0 4.5 N 9.8 0.0 1.4
20:08 17.1 15.3 89 1013.2 6.0 N 9.8 0.0 1.4
20:09 17.1 15.3 89 1013.1 6.0 N 9.8 0.0 1.4
20:10 17.1 15.3 89 1013.1 8.3 NE 9.8 0.0 1.4
09:32 17.0 16.4 96 1018.2 6.9 N 12.1 0.0 0.0
09:33 17.0 16.4 96 1018.1 8.3 NE 12.1 0.0 0.0
09:34 17.0 16.4 96 1018.1 8.3 NE 12.1 0.0 0.0
09:35 17.0 16.4 96 1018.0 11.4 NE 12.1 0.0 0.0
20:11 17.0 15.2 89 1013.3 7.6 NE 9.8 0.0 1.4
20:12 17.0 15.2 89 1013.1 5.4 N 9.8 0.0 1.4
20:14 17.0 15.4 90 1013.2 6.0 NE 9.8 0.0 1.4
20:15 17.0 15.4 90 1013.3 6.9 NE 9.8 0.0 1.4
20:17 17.0 15.4 90 1013.0 4.5 N 9.8 0.0 1.4
20:18 17.0 15.4 90 1013.2 9.2 NE 9.8 0.0 1.4
20:20 17.0 15.4 90 1013.1 6.9 N 9.8 0.0 1.4
20:21 17.0 15.4 90 1013.2 7.6 N 9.2 0.0 1.4
09:30 16.9 16.4 97 1018.0 12.1 N 12.1 0.0 0.0
09:31 16.9 16.4 97 1018.2 11.4 NE 12.1 0.0 0.0
20:22 16.9 15.3 90 1013.1 8.3 NE 9.2 0.0 1.4
20:23 16.9 15.3 90 1013.0 10.7 N 10.7 0.0 1.4
20:24 16.9 15.3 90 1013.1 6.0 NE 10.7 0.0 1.4
20:25 16.9 15.3 90 1013.0 6.9 NW 10.7 0.0 1.4
20:26 16.9 15.3 90 1013.0 6.9 NE 10.7 0.0 1.4
20:28 16.9 15.3 90 1013.1 6.9 N 10.7 0.0 1.4
20:29 16.9 15.3 90 1013.0 6.0 NE 10.7 0.0 1.4
20:30 16.9 15.3 90 1013.0 5.4 N 10.7 0.0 1.4
20:31 16.9 15.3 90 1013.0 4.5 N 10.7 0.0 1.4
20:32 16.9 15.3 90 1013.0 5.4 NE 10.7 0.0 1.4
20:33 16.9 15.3 90 1013.1 4.5 NE 10.7 0.0 1.4
20:35 16.9 15.3 90 1013.1 6.0 N 8.3 0.0 1.4
20:36 16.9 15.3 90 1012.9 5.4 NE 8.3 0.0 1.4
20:37 16.9 15.3 90 1013.0 6.9 N 8.3 0.0 1.4
20:39 16.9 15.3 90 1012.9 6.0 NW 7.6 0.0 1.4
09:28 16.8 16.3 97 1018.0 12.1 NE 12.1 0.0 0.0
09:29 16.8 16.3 97 1018.1 6.0 NE 12.1 0.0 0.0
20:34 16.8 15.2 90 1013.0 7.6 N 8.3 0.0 1.4
20:40 16.8 15.2 90 1012.8 3.8 NW 7.6 0.0 1.4
20:41 16.8 15.2 90 1012.8 6.9 N 7.6 0.0 1.4
20:42 16.8 15.2 90 1012.8 3.1 N 7.6 0.0 1.4
20:43 16.8 15.2 90 1012.9 3.8 N 7.6 0.0 1.4
20:44 16.8 15.2 90 1013.0 5.4 NE 7.6 0.0 1.4
20:45 16.8 15.2 90 1013.0 5.4 NW 7.6 0.0 1.4
20:46 16.8 15.3 91 1013.0 7.6 NW 7.6 0.0 1.4
20:47 16.8 15.3 91 1013.0 4.5 NE 7.6 0.0 1.4
20:48 16.8 15.3 91 1013.1 7.6 N 7.6 0.0 1.4
20:49 16.8 15.2 90 1013.0 6.9 NE 7.6 0.0 1.4
20:50 16.8 15.3 91 1012.9 4.5 NE 7.6 0.0 1.4
20:52 16.8 15.3 91 1012.9 9.2 NW 9.2 0.0 1.4
20:53 16.8 15.3 91 1013.0 6.0 N 9.2 0.0 1.4
20:54 16.8 15.3 91 1013.1 4.5 NE 9.2 0.0 1.4
20:56 16.8 15.3 91 1013.1 6.0 NE 9.2 0.0 1.4
20:57 16.8 15.3 91 1013.0 6.0 N 9.2 0.0 1.4
20:58 16.8 15.3 91 1013.0 5.4 NE 9.2 0.0 1.4
20:59 16.8 15.3 91 1012.9 5.4 NE 9.2 0.0 1.4
21:00 16.8 15.3 91 1012.8 8.3 NW 9.2 0.0 1.4
09:25 16.7 16.2 97 1018.1 4.5 N 10.7 0.0 0.0
09:26 16.7 16.2 97 1018.0 3.1 N 10.7 0.0 0.0
09:27 16.7 16.2 97 1018.1 4.5 NE 10.7 0.0 0.0
20:55 16.7 15.2 91 1013.1 6.0 N 9.2 0.0 1.4
21:01 16.7 15.2 91 1012.9 6.9 NE 9.2 0.0 1.4
21:02 16.7 15.2 91 1012.9 5.4 NE 8.3 0.0 1.4
21:04 16.7 15.2 91 1013.1 4.5 N 8.3 0.0 1.4
21:05 16.7 15.2 91 1012.9 6.0 NE 8.3 0.0 1.4
21:06 16.7 15.2 91 1013.0 5.4 NE 8.3 0.0 1.4
21:07 16.7 15.2 91 1012.9 7.6 NW 8.3 0.0 1.4
21:08 16.7 15.2 91 1012.9 6.0 NE 8.3 0.0 1.4
21:09 16.7 15.2 91 1012.9 5.4 NE 8.3 0.0 1.4
21:10 16.7 15.2 91 1012.7 4.5 N 7.6 0.0 1.4
21:11 16.7 15.2 91 1012.8 6.0 NE 7.6 0.0 1.4
21:12 16.7 15.2 91 1012.8 3.1 NE 7.6 0.0 1.4
21:13 16.7 15.2 91 1012.8 6.0 N 7.6 0.0 1.4
21:14 16.7 15.2 91 1012.8 5.4 NE 7.6 0.0 1.4
21:16 16.7 15.2 91 1012.9 8.3 N 8.3 0.0 1.4
21:17 16.7 15.2 91 1012.9 4.5 E 8.3 0.0 1.4
21:18 16.7 15.2 91 1012.8 4.5 NE 8.3 0.0 1.4
21:19 16.7 15.2 91 1012.8 4.5 NE 8.3 0.0 1.4
09:22 16.6 16.1 97 1018.1 7.6 NE 10.7 0.0 0.0
09:24 16.6 16.1 97 1018.0 5.4 N 10.7 0.0 0.0
21:20 16.6 15.1 91 1012.8 5.4 NE 8.3 0.0 1.4
21:21 16.6 15.1 91 1013.1 5.4 NE 8.3 0.0 1.4
21:22 16.6 15.3 92 1013.0 5.4 N 8.3 0.0 1.4
21:23 16.6 15.3 92 1013.2 5.4 N 8.3 0.0 1.4
21:24 16.6 15.3 92 1013.0 3.8 NE 8.3 0.0 1.4
21:25 16.6 15.3 92 1013.1 9.2 NE 9.2 0.0 1.4
21:26 16.6 15.3 92 1013.0 7.6 NE 9.2 0.0 1.4
21:27 16.6 15.3 92 1013.2 6.9 NE 9.2 0.0 1.4
21:29 16.6 15.3 92 1013.1 9.8 N 9.8 0.0 1.4
21:30 16.6 15.3 92 1013.2 6.0 NE 9.8 0.0 1.4
21:31 16.6 15.3 92 1013.1 5.4 N 9.8 0.0 1.4
21:32 16.6 15.3 92 1013.0 5.4 NE 9.8 0.0 1.4
21:33 16.6 15.3 92 1013.1 5.4 NE 9.8 0.0 1.4
21:34 16.6 15.3 92 1013.1 4.5 NE 9.8 0.0 1.4
09:19 16.5 16.2 98 1018.1 6.0 NE 9.2 0.0 0.0
09:20 16.5 16.2 98 1018.0 10.7 NE 10.7 0.0 0.0
09:21 16.5 16.2 98 1018.1 7.6 NE 10.7 0.0 0.0
21:35 16.5 15.2 92 1013.0 6.9 N 9.8 0.0 1.4
21:36 16.5 15.2 92 1013.2 6.0 NE 9.8 0.0 1.4
21:37 16.5 15.2 92 1013.2 4.5 NE 9.8 0.0 1.4
21:38 16.5 15.2 92 1013.0 3.8 NE 9.8 0.0 1.4
21:39 16.5 15.2 92 1013.2 4.5 NE 6.9 0.0 1.4
21:40 16.5 15.2 92 1013.1 3.8 NE 6.9 0.0 1.4
21:42 16.5 15.2 92 1013.1 4.5 NE 6.9 0.0 1.4
21:43 16.5 15.2 92 1013.1 4.5 NE 6.9 0.0 1.4
21:44 16.5 15.2 92 1012.9 3.8 NE 6.9 0.0 1.4
21:45 16.5 15.2 92 1013.2 3.8 NE 6.9 0.0 1.4
21:46 16.5 15.2 92 1013.1 5.4 NE 6.0 0.0 1.4
21:47 16.5 15.2 92 1013.1 7.6 NE 7.6 0.0 1.4
21:48 16.5 15.2 92 1012.9 6.9 N 7.6 0.0 1.4
21:50 16.5 15.2 92 1012.9 6.0 N 7.6 0.0 1.4
21:51 16.5 15.2 92 1012.8 4.5 N 7.6 0.0 1.4
21:52 16.5 15.4 93 1013.0 6.0 NE 7.6 0.0 1.4
21:53 16.5 15.4 93 1012.9 5.4 NE 7.6 0.0 1.4
21:54 16.5 15.2 92 1012.9 6.0 NE 7.6 0.0 1.4
21:55 16.5 15.4 93 1012.9 3.8 NE 7.6 0.0 1.4
21:56 16.5 15.4 93 1012.8 5.4 N 7.6 0.0 1.4
21:58 16.5 15.4 93 1012.9 6.0 NE 6.9 0.0 1.4
21:59 16.5 15.4 93 1012.9 8.3 NE 8.3 0.0 1.4
22:00 16.5 15.4 93 1012.8 4.5 NE 8.3 0.0 1.4
22:01 16.5 15.4 93 1012.9 6.9 NE 8.3 0.0 1.4
22:02 16.5 15.4 93 1012.9 6.9 NE 8.3 0.0 1.4
22:03 16.5 15.4 93 1012.9 6.9 NE 8.3 0.0 1.4
22:05 16.5 15.4 93 1013.0 6.9 NE 8.3 0.0 1.4
22:06 16.5 15.4 93 1013.1 9.8 NE 9.8 0.0 1.4
22:07 16.5 15.4 93 1013.0 6.0 NE 9.8 0.0 1.4
22:08 16.5 15.4 93 1013.1 8.3 NE 9.8 0.0 1.4
09:16 16.4 16.1 98 1018.0 7.6 NE 9.2 0.0 0.0
09:17 16.4 16.1 98 1018.1 5.4 NE 9.2 0.0 0.0
09:18 16.4 16.1 98 1018.0 6.9 NE 9.2 0.0 0.0
22:09 16.4 15.3 93 1013.0 8.3 N 9.8 0.0 1.4
22:11 16.4 15.3 93 1012.9 3.8 NE 9.8 0.0 1.4
22:13 16.4 15.3 93 1012.9 6.9 NE 9.8 0.0 1.4
22:14 16.4 15.3 93 1012.8 9.2 N 9.8 0.0 1.4
09:14 16.3 16.0 98 1018.0 8.3 NE 9.2 0.0 0.0
09:15 16.3 16.0 98 1018.0 7.6 NE 9.2 0.0 0.0
22:16 16.3 15.2 93 1013.1 6.0 NE 9.2 0.0 1.4
22:17 16.3 15.2 93 1013.0 9.8 NE 12.1 0.0 1.4
22:19 16.3 15.0 92 1013.1 10.7 NE 12.1 0.0 1.4
09:12 16.2 15.9 98 1018.1 6.9 N 9.8 0.0 0.0
09:13 16.2 15.9 98 1018.1 9.2 E 9.2 0.0 0.0
22:20 16.2 15.1 93 1013.0 6.0 NE 12.1 0.0 1.4
22:22 16.2 14.9 92 1013.1 9.8 NE 12.1 0.0 1.4
09:08 16.1 16.0 99 1018.2 3.8 NE 9.8 0.0 0.0
09:09 16.1 16.0 99 1018.2 3.8 NW 9.8 0.0 0.0
09:11 16.1 15.8 98 1018.0 9.2 NE 9.8 0.0 0.0
22:23 16.1 14.8 92 1013.1 6.9 NE 12.1 0.0 1.4
22:25 16.1 14.8 92 1013.2 11.4 NE 12.1 0.0 1.4
22:26 16.1 14.8 92 1013.0 13.0 NE 13.0 0.0 1.4
22:27 16.1 14.8 92 1012.9 9.2 NE 13.0 0.0 1.4
09:05 16.0 15.9 99 1018.2 9.2 NE 9.8 0.0 0.0
09:06 16.0 15.9 99 1018.2 5.4 NE 9.8 0.0 0.0
09:07 16.0 15.9 99 1018.1 4.5 N 9.8 0.0 0.0
22:28 16.0 14.7 92 1013.1 7.6 NE 13.0 0.0 1.4
22:29 16.0 14.7 92 1013.1 6.9 NE 13.0 0.0 1.4
09:04 15.9 15.8 99 1018.1 3.8 NE 9.8 0.0 0.0
22:30 15.9 14.6 92 1013.1 8.3 NE 13.0 0.0 1.4
22:32 15.9 14.6 92 1013.0 6.0 NE 13.0 0.0 1.4
22:33 15.9 14.6 92 1013.1 7.6 NE 13.0 0.0 1.4
22:35 15.9 14.6 92 1013.3 9.2 NE 13.0 0.0 1.4
09:01 15.8 15.7 99 1018.1 9.8 NE 9.8 0.0 0.0
09:02 15.8 15.7 99 1018.1 9.8 NE 9.8 0.0 0.0
09:03 15.8 15.7 99 1018.1 6.9 NE 9.8 0.0 0.0
22:34 15.8 14.5 92 1013.1 9.8 NE 13.0 0.0 1.4
22:36 15.8 14.5 92 1013.2 12.1 NE 12.1 0.0 1.4
22:38 15.8 14.5 92 1013.2 13.6 N 13.6 0.0 1.4
22:39 15.8 14.5 92 1013.3 9.2 NE 13.6 0.0 1.4
08:57 15.7 15.6 99 1018.2 7.6 NE 8.3 0.0 0.0
08:58 15.7 15.6 99 1018.0 5.4 NE 8.3 0.0 0.0
08:59 15.7 15.6 99 1018.1 3.8 N 8.3 0.0 0.0
22:40 15.7 14.4 92 1013.3 7.6 NE 13.6 0.0 1.4
22:41 15.7 14.4 92 1013.4 10.7 NE 13.6 0.0 1.4
22:42 15.7 14.4 92 1013.2 8.3 NE 13.6 0.0 1.4
08:54 15.6 15.5 99 1018.2 4.5 NE 8.3 0.0 0.0
08:55 15.6 15.5 99 1018.2 4.5 NE 8.3 0.0 0.0
08:56 15.6 15.5 99 1018.0 5.4 N 8.3 0.0 0.0
22:44 15.6 14.3 92 1013.3 6.9 NE 13.6 0.0 1.4
22:45 15.6 14.3 92 1013.2 6.9 NE 13.6 0.0 1.4
22:46 15.6 14.3 92 1013.3 9.8 NE 13.6 0.0 1.4
22:47 15.6 14.3 92 1013.3 8.3 NE 13.6 0.0 1.4
22:49 15.6 14.3 92 1013.3 6.0 NE 12.1 0.0 1.4
22:50 15.6 14.3 92 1013.3 5.4 NE 10.7 0.0 1.4
08:49 15.5 15.4 99 1018.1 4.5 NE 9.2 0.0 0.0
08:50 15.5 15.4 99 1018.1 3.8 N 9.2 0.0 0.0
08:51 15.5 15.4 99 1018.2 6.9 N 8.3 0.0 0.0
08:52 15.5 15.4 99 1018.2 8.3 NE 8.3 0.0 0.0
08:53 15.5 15.4 99 1018.1 8.3 NE 8.3 0.0 0.0
22:51 15.5 14.2 92 1013.1 6.0 SE 10.7 0.0 1.4
22:52 15.5 14.2 92 1013.2 6.9 NE 9.8 0.0 1.4
22:53 15.5 14.2 92 1013.1 9.8 NE 9.8 0.0 1.4
22:55 15.5 14.2 92 1013.3 8.3 NE 9.8 0.0 1.4
22:56 15.5 14.2 92 1012.9 4.5 NE 9.8 0.0 1.4
22:57 15.5 14.2 92 1013.0 7.6 NE 9.8 0.0 1.4
22:58 15.5 14.2 92 1013.1 5.4 E 9.8 0.0 1.4
23:00 15.5 14.2 92 1013.0 4.5 N 9.8 0.0 1.4
23:01 15.5 14.2 92 1012.8 8.3 NE 9.8 0.0 1.4
23:02 15.5 14.2 92 1013.0 8.3 NE 9.8 0.0 1.4
23:03 15.5 14.2 92 1012.8 8.3 NE 9.8 0.0 1.4
23:05 15.5 14.2 92 1012.8 8.3 NE 8.3 0.0 1.4
23:06 15.5 14.2 92 1012.8 8.3 NE 8.3 0.0 1.4
08:45 15.4 15.3 99 1018.0 7.6 NE 9.2 0.0 0.0
08:46 15.4 15.3 99 1018.2 3.8 NE 9.2 0.0 0.0
08:47 15.4 15.3 99 1018.2 4.5 NE 9.2 0.0 0.0
23:07 15.4 14.1 92 1012.8 6.0 NE 8.3 0.0 1.4
08:41 15.3 15.2 99 1018.2 6.0 N 9.2 0.0 0.0
08:42 15.3 15.2 99 1018.0 3.8 N 9.2 0.0 0.0
08:43 15.3 15.2 99 1018.1 5.4 NE 9.2 0.0 0.0
08:44 15.3 15.2 99 1018.2 5.4 NE 9.2 0.0 0.0
23:09 15.3 14.0 92 1012.9 6.0 NE 8.3 0.0 1.4
23:10 15.3 14.0 92 1012.8 7.6 NE 8.3 0.0 1.4
23:11 15.3 14.0 92 1012.8 6.9 NE 8.3 0.0 1.4
08:38 15.2 15.1 99 1018.0 7.6 NE 7.6 0.0 0.0
08:39 15.2 15.1 99 1018.0 8.3 NE 8.3 0.0 0.0
08:40 15.2 15.1 99 1018.1 9.2 NE 9.2 0.0 0.0
23:12 15.2 13.9 92 1012.9 7.6 NE 11.4 0.0 1.4
23:13 15.2 13.9 92 1012.9 4.5 N 11.4 0.0 1.4
23:15 15.2 13.9 92 1013.0 7.6 NE 11.4 0.0 1.4
23:16 15.2 13.9 92 1012.8 6.0 NE 11.4 0.0 1.4
23:17 15.2 13.9 92 1012.7 5.4 N 11.4 0.0 1.4
08:36 15.1 15.0 99 1018.1 3.1 NE 7.6 0.0 0.0
08:37 15.1 15.0 99 1018.1 3.8 NE 6.9 0.0 0.0
23:18 15.1 13.8 92 1012.6 7.6 NE 11.4 0.0 1.4
23:20 15.1 13.8 92 1012.6 8.3 NE 11.4 0.0 1.4
23:21 15.1 13.8 92 1012.7 7.6 NE 11.4 0.0 1.4
23:22 15.1 13.8 92 1012.7 6.9 NE 8.3 0.0 1.4
23:23 15.1 13.8 92 1012.8 9.2 NE 9.2 0.0 1.4
08:32 15.0 14.9 99 1018.1 4.5 N 8.3 0.0 0.0
08:33 15.0 14.9 99 1018.3 4.5 N 7.6 0.0 0.0
08:34 15.0 14.9 99 1018.0 6.9 NE 7.6 0.0 0.0
08:35 15.0 14.9 99 1018.0 5.4 N 7.6 0.0 0.0
23:24 15.0 13.7 92 1012.8 6.0 N 9.2 0.0 1.4
23:26 15.0 13.7 92 1012.8 8.3 N 9.2 0.0 1.4
23:27 15.0 13.7 92 1012.8 5.4 N 9.2 0.0 1.4
23:28 15.0 13.7 92 1012.5 7.6 N 9.2 0.0 1.4
23:29 15.0 13.7 92 1012.7 11.4 N 11.4 0.0 1.4
23:30 15.0 13.7 92 1012.5 6.9 NE 11.4 0.0 1.4
08:28 14.9 14.8 99 1018.2 3.8 NE 8.3 0.0 0.0
08:29 14.9 14.8 99 1018.1 4.5 NE 8.3 0.0 0.0
08:30 14.9 14.8 99 1018.0 4.5 NE 8.3 0.0 0.0
08:31 14.9 14.8 99 1018.2 6.0 NE 8.3 0.0 0.0
23:32 14.9 13.6 92 1012.6 8.3 NE 11.4 0.0 1.4
23:33 14.9 13.6 92 1012.8 9.2 NE 11.4 0.0 1.4
23:34 14.9 13.6 92 1012.8 8.3 N 11.4 0.0 1.4
23:36 14.9 13.6 92 1012.8 6.9 NE 11.4 0.0 1.4
08:22 14.8 14.7 99 1018.1 8.3 NE 8.3 0.0 0.0
08:23 14.8 14.7 99 1018.3 4.5 NE 8.3 0.0 0.0
08:24 14.8 14.7 99 1018.1 5.4 NE 8.3 0.0 0.0
08:25 14.8 14.7 99 1018.1 4.5 N 8.3 0.0 0.0
08:26 14.8 14.7 99 1018.1 7.6 N 8.3 0.0 0.0
23:37 14.8 13.5 92 1012.7 7.6 NE 11.4 0.0 1.4
23:38 14.8 13.5 92 1012.8 6.9 S 11.4 0.0 1.4
23:39 14.8 13.5 92 1012.6 8.3 NE 11.4 0.0 1.4
23:40 14.8 13.5 92 1012.6 6.0 NE 9.8 0.0 1.4
23:42 14.8 13.5 92 1012.6 9.2 N 9.2 0.0 1.4
23:43 14.8 13.5 92 1012.6 8.3 NE 9.2 0.0 1.4
23:44 14.8 13.5 92 1012.4 6.0 NE 9.2 0.0 1.4
23:45 14.8 13.5 92 1012.5 5.4 NE 9.2 0.0 1.4
23:46 14.8 13.5 92 1012.7 6.9 NE 9.2 0.0 1.4
23:48 14.8 13.7 93 1012.6 6.9 NE 9.2 0.0 1.4
23:49 14.8 13.5 92 1012.3 5.4 NE 9.2 0.0 1.4
08:18 14.7 14.6 99 1017.9 6.0 E 7.6 0.0 0.0
08:19 14.7 14.6 99 1018.1 5.4 NE 7.6 0.0 0.0
08:20 14.7 14.6 99 1018.2 3.8 NE 7.6 0.0 0.0
08:21 14.7 14.6 99 1018.2 4.5 NE 7.6 0.0 0.0
23:50 14.7 13.6 93 1012.3 7.6 NE 9.2 0.0 1.4
23:51 14.7 13.4 92 1012.5 5.4 NE 9.2 0.0 1.4
23:53 14.7 13.4 92 1012.5 3.8 NE 7.6 0.0 1.4
23:54 14.7 13.6 93 1012.5 5.4 NE 7.6 0.0 1.4
23:55 14.7 13.6 93 1012.8 4.5 NE 7.6 0.0 1.4
23:56 14.7 13.6 93 1012.6 5.4 NE 7.6 0.0 1.4
08:12 14.6 14.5 99 1018.2 3.1 N 6.0 0.0 0.0
08:13 14.6 14.5 99 1018.2 2.2 NE 6.0 0.0 0.0
08:15 14.6 14.5 99 1018.2 5.4 NE 6.0 0.0 0.0
08:16 14.6 14.5 99 1017.9 7.6 NE 7.6 0.0 0.0
08:17 14.6 14.5 99 1018.1 6.9 N 7.6 0.0 0.0
23:58 14.6 13.5 93 1012.7 7.6 NE 7.6 0.0 1.4
08:08 14.5 14.4 99 1018.3 3.8 N 7.6 0.0 0.0
08:09 14.5 14.4 99 1018.2 2.2 NW 6.0 0.0 0.0
08:11 14.5 14.4 99 1018.2 3.8 N 6.0 0.0 0.0
08:02 14.4 14.3 99 1018.2 5.4 NE 7.6 0.0 0.0
08:03 14.4 14.3 99 1018.3 3.8 NE 7.6 0.0 0.0
08:04 14.4 14.3 99 1018.3 3.8 NE 7.6 0.0 0.0
08:06 14.4 14.3 99 1018.3 3.1 NE 7.6 0.0 0.0
08:07 14.4 14.3 99 1018.2 6.0 NE 7.6 0.0 0.0
07:58 14.3 14.2 99 1018.3 7.6 N 7.6 0.0 0.0
07:59 14.3 14.2 99 1018.2 2.2 N 7.6 0.0 0.0
08:00 14.3 14.2 99 1018.3 3.8 N 7.6 0.0 0.0
08:01 14.3 14.2 99 1018.3 5.4 NE 7.6 0.0 0.0
07:55 14.2 14.1 99 1018.3 2.2 NE 6.9 0.0 0.0
07:56 14.2 14.1 99 1018.3 3.1 NE 6.9 0.0 0.0
07:57 14.2 14.1 99 1018.2 6.0 NE 6.9 0.0 0.0
07:51 14.1 14.0 99 1018.2 5.4 NE 6.9 0.0 0.0
07:52 14.1 14.0 99 1018.2 6.0 NE 6.9 0.0 0.0
07:53 14.1 14.0 99 1018.4 4.5 NE 6.9 0.0 0.0
07:54 14.1 14.0 99 1018.2 3.1 NE 6.9 0.0 0.0
07:48 14.0 13.9 99 1018.3 3.8 NE 6.9 0.0 0.0
07:49 14.0 13.9 99 1018.2 4.5 NE 6.9 0.0 0.0
07:50 14.0 13.9 99 1018.3 6.9 NE 6.9 0.0 0.0
07:45 13.9 13.8 99 1018.1 5.4 N 6.9 0.0 0.0
07:46 13.9 13.8 99 1018.2 3.8 NE 6.9 0.0 0.0
07:47 13.9 13.8 99 1018.3 4.5 N 6.9 0.0 0.0
07:41 13.8 13.7 99 1018.3 3.1 NE 6.9 0.0 0.0
07:43 13.8 13.7 99 1018.3 2.2 N 6.9 0.0 0.0
07:44 13.8 13.7 99 1018.2 3.8 N 6.9 0.0 0.0
07:38 13.7 13.6 99 1018.4 3.1 NE 5.4 0.0 0.0
07:39 13.7 13.6 99 1018.4 3.1 NE 5.4 0.0 0.0
07:40 13.7 13.6 99 1018.3 6.9 NE 6.9 0.0 0.0
07:36 13.6 13.5 99 1018.3 3.1 NE 5.4 0.0 0.0
07:37 13.6 13.5 99 1018.3 5.4 NE 5.4 0.0 0.0
07:33 13.5 13.4 99 1018.2 4.5 NE 5.4 0.0 0.0
07:34 13.5 13.4 99 1018.2 3.1 NE 5.4 0.0 0.0
07:35 13.5 13.4 99 1018.3 3.1 NE 5.4 0.0 0.0
07:31 13.4 13.3 99 1018.2 2.2 NE 5.4 0.0 0.0
07:32 13.4 13.3 99 1018.3 5.4 NE 5.4 0.0 0.0
07:28 13.3 13.2 99 1018.3 1.6 NE 5.4 0.0 0.0
07:29 13.3 13.2 99 1018.3 3.8 NE 5.4 0.0 0.0
07:30 13.3 13.2 99 1018.3 3.8 NE 5.4 0.0 0.0
07:25 13.2 13.1 99 1018.3 5.4 NE 5.4 0.0 0.0
07:27 13.2 13.1 99 1018.3 3.1 NE 5.4 0.0 0.0
07:22 13.1 13.0 99 1018.1 3.8 NE 5.4 0.0 0.0
07:23 13.1 13.0 99 1018.3 3.8 NE 5.4 0.0 0.0
07:24 13.1 13.0 99 1018.3 4.5 NE 5.4 0.0 0.0
07:18 13.0 12.9 99 1018.2 4.5 NE 6.0 0.0 0.0
07:19 13.0 12.9 99 1018.1 4.5 NE 6.0 0.0 0.0
07:20 13.0 12.9 99 1018.1 3.1 NE 6.0 0.0 0.0
07:21 13.0 12.9 99 1018.3 3.8 NE 5.4 0.0 0.0
00:08 12.9 11.6 92 1018.7 3.8 N 4.5 0.0 0.0
00:09 12.9 11.6 92 1018.6 5.4 NE 5.4 0.0 0.0
00:10 12.9 11.6 92 1018.4 3.1 NE 5.4 0.0 0.0
00:11 12.9 11.6 92 1018.5 2.2 NE 5.4 0.0 0.0
00:13 12.9 11.6 92 1018.6 5.4 N 5.4 0.0 0.0
00:14 12.9 11.6 92 1018.5 3.8 NE 5.4 0.0 0.0
00:15 12.9 11.6 92 1018.5 4.5 N 5.4 0.0 0.0
00:16 12.9 11.6 92 1018.6 3.8 N 5.4 0.0 0.0
00:17 12.9 11.6 92 1018.6 4.5 N 5.4 0.0 0.0
00:18 12.9 11.6 92 1018.5 5.4 N 5.4 0.0 0.0
00:20 12.9 11.6 92 1018.6 4.5 N 5.4 0.0 0.0
00:21 12.9 11.6 92 1018.3 4.5 NE 5.4 0.0 0.0
00:22 12.9 11.6 92 1018.6 3.8 NE 5.4 0.0 0.0
00:23 12.9 11.6 92 1018.6 4.5 N 5.4 0.0 0.0
00:24 12.9 11.6 92 1018.5 3.8 E 6.0 0.0 0.0
00:25 12.9 11.6 92 1018.5 4.5 N 6.0 0.0 0.0
00:26 12.9 11.6 92 1018.6 4.5 N 6.0 0.0 0.0
00:27 12.9 11.6 92 1018.7 3.8 N 6.0 0.0 0.0
00:28 12.9 11.6 92 1018.6 3.8 N 6.0 0.0 0.0
00:29 12.9 11.6 92 1018.5 3.8 NE 6.0 0.0 0.0
00:31 12.9 11.6 92 1018.4 4.5 NE 6.0 0.0 0.0
00:32 12.9 11.6 92 1018.5 3.1 NE 6.0 0.0 0.0
00:33 12.9 11.6 92 1018.3 2.2 NE 6.0 0.0 0.0
00:34 12.9 11.6 92 1018.5 3.1 N 4.5 0.0 0.0
00:35 12.9 11.6 92 1018.4 2.2 N 4.5 0.0 0.0
00:37 12.9 11.6 92 1018.6 3.1 N 4.5 0.0 0.0
00:38 12.9 11.6 92 1018.7 2.2 N 4.5 0.0 0.0
00:39 12.9 11.8 93 1018.7 3.1 N 4.5 0.0 0.0
00:40 12.9 11.8 93 1018.5 3.8 N 4.5 0.0 0.0
00:41 12.9 11.8 93 1018.7 3.8 N 4.5 0.0 0.0
00:42 12.9 11.8 93 1018.8 3.1 N 4.5 0.0 0.0
00:44 12.9 11.6 92 1018.8 3.8 NE 5.4 0.0 0.0
00:48 12.9 11.8 93 1018.6 3.8 N 6.0 0.0 0.0
00:50 12.9 11.8 93 1018.6 2.2 N 6.0 0.0 0.0
00:55 12.9 11.8 93 1018.7 3.1 N 6.0 0.0 0.0
00:57 12.9 11.8 93 1018.7 3.1 N 6.0 0.0 0.0
00:59 12.9 11.8 93 1018.6 3.1 N 3.8 0.0 0.0
01:09 12.9 11.8 93 1018.6 3.1 NE 5.4 0.0 0.0
07:16 12.9 12.8 99 1018.4 3.8 NE 6.0 0.0 0.0
07:17 12.9 12.8 99 1018.2 4.5 NE 6.0 0.0 0.0
00:01 12.8 11.4 91 1018.7 3.1 NE 6.0 0.0 0.0
00:02 12.8 11.4 91 1018.8 3.1 NE 6.0 0.0 0.0
00:03 12.8 11.4 91 1018.6 3.1 NE 6.0 0.0 0.0
00:05 12.8 11.4 91 1018.6 3.1 NE 4.5 0.0 0.0
00:06 12.8 11.5 92 1018.6 2.2 N 4.5 0.0 0.0
00:07 12.8 11.5 92 1018.6 3.8 N 4.5 0.0 0.0
00:43 12.8 11.7 93 1018.7 5.4 N 5.4 0.0 0.0
00:46 12.8 11.7 93 1018.7 1.6 NE 5.4 0.0 0.0
00:47 12.8 11.7 93 1018.6 3.1 NE 5.4 0.0 0.0
00:49 12.8 11.7 93 1018.6 3.1 N 6.0 0.0 0.0
00:51 12.8 11.7 93 1018.6 2.2 N 6.0 0.0 0.0
00:52 12.8 11.7 93 1018.7 3.8 NE 6.0 0.0 0.0
00:53 12.8 11.7 93 1018.6 2.2 NE 6.0 0.0 0.0
00:56 12.8 11.7 93 1018.4 3.1 N 6.0 0.0 0.0
00:58 12.8 11.7 93 1018.7 2.2 N 3.8 0.0 0.0
01:00 12.8 11.7 93 1018.7 2.2 N 3.8 0.0 0.0
01:01 12.8 11.7 93 1018.6 2.2 N 3.8 0.0 0.0
01:03 12.8 11.7 93 1018.8 2.2 N 3.8 0.0 0.0
01:04 12.8 11.7 93 1018.6 2.2 N 3.8 0.0 0.0
01:05 12.8 11.7 93 1018.7 2.2 N 3.8 0.0 0.0
01:06 12.8 11.7 93 1018.7 4.5 NE 5.4 0.0 0.0
01:07 12.8 11.7 93 1018.7 3.8 NE 5.4 0.0 0.0
01:10 12.8 11.7 93 1018.5 4.5 NE 5.4 0.0 0.0
01:11 12.8 11.7 93 1018.6 3.8 NE 5.4 0.0 0.0
01:12 12.8 11.7 93 1018.6 3.8 NE 5.4 0.0 0.0
01:13 12.8 11.7 93 1018.7 3.8 NE 5.4 0.0 0.0
01:14 12.8 11.7 93 1018.6 5.4 NE 5.4 0.0 0.0
01:15 12.8 11.7 93 1018.5 3.8 NE 5.4 0.0 0.0
01:16 12.8 11.7 93 1018.4 3.8 NE 5.4 0.0 0.0
01:17 12.8 11.7 93 1018.3 3.8 NE 5.4 0.0 0.0
01:18 12.8 11.7 93 1018.3 6.9 N 6.9 0.0 0.0
01:20 12.8 11.7 93 1018.3 5.4 NE 6.9 0.0 0.0
01:21 12.8 11.7 93 1018.4 5.4 N 6.9 0.0 0.0
01:22 12.8 11.7 93 1018.5 3.1 N 6.9 0.0 0.0
01:23 12.8 11.7 93 1018.5 5.4 NE 6.9 0.0 0.0
01:24 12.8 11.7 93 1018.3 4.5 NE 6.9 0.0 0.0
01:25 12.8 11.7 93 1018.5 3.1 NE 6.9 0.0 0.0
01:26 12.8 11.7 93 1018.5 3.1 NE 6.9 0.0 0.0
07:12 12.8 12.7 99 1018.4 3.1 N 6.0 0.0 0.0
07:13 12.8 12.7 99 1018.3 2.2 N 6.0 0.0 0.0
07:14 12.8 12.7 99 1018.4 3.1 N 6.0 0.0 0.0
07:15 12.8 12.7 99 1018.3 5.4 NE 6.0 0.0 0.0
01:27 12.7 11.6 93 1018.3 3.1 NE 6.9 0.0 0.0
01:28 12.7 11.6 93 1018.3 4.5 NE 6.9 0.0 0.0
01:29 12.7 11.8 94 1018.5 4.5 N 5.4 0.0 0.0
01:30 12.7 11.6 93 1018.4 3.1 N 5.4 0.0 0.0
01:32 12.7 11.8 94 1018.4 3.8 N 5.4 0.0 0.0
01:33 12.7 11.8 94 1018.3 3.1 N 5.4 0.0 0.0
01:34 12.7 11.8 94 1018.4 3.1 N 5.4 0.0 0.0
01:35 12.7 11.6 93 1018.3 4.5 NE 5.4 0.0 0.0
01:36 12.7 11.8 94 1018.3 3.8 NE 5.4 0.0 0.0
01:37 12.7 11.6 93 1018.3 4.5 NE 5.4 0.0 0.0
01:38 12.7 11.8 94 1018.3 3.8 NE 5.4 0.0 0.0
01:39 12.7 11.8 94 1018.4 4.5 NE 5.4 0.0 0.0
02:12 12.7 11.8 94 1018.3 2.2 N 4.5 0.0 0.0
02:13 12.7 11.8 94 1018.2 3.8 N 4.5 0.0 0.0
02:14 12.7 11.9 95 1018.3 3.1 N 4.5 0.0 0.0
02:16 12.7 11.8 94 1018.3 3.1 NE 4.5 0.0 0.0
02:17 12.7 11.9 95 1018.2 2.2 N 3.8 0.0 0.0
02:20 12.7 11.9 95 1018.2 4.5 N 4.5 0.0 0.0
02:23 12.7 11.9 95 1018.3 5.4 NE 5.4 0.0 0.0
07:07 12.7 12.6 99 1018.3 1.6 NE 4.5 0.0 0.0
07:08 12.7 12.6 99 1018.3 2.2 NE 4.5 0.0 0.0
07:10 12.7 12.6 99 1018.2 3.1 NE 3.8 0.0 0.0
07:11 12.7 12.6 99 1018.3 4.5 N 6.0 0.0 0.0
01:40 12.6 11.7 94 1018.3 3.8 N 4.5 0.0 0.0
01:41 12.6 11.7 94 1018.3 4.5 NE 4.5 0.0 0.0
01:43 12.6 11.7 94 1018.3 3.8 N 4.5 0.0 0.0
01:44 12.6 11.7 94 1018.4 4.5 NE 4.5 0.0 0.0
01:45 12.6 11.7 94 1018.3 5.4 NE 5.4 0.0 0.0
01:46 12.6 11.7 94 1018.3 4.5 NE 5.4 0.0 0.0
01:47 12.6 11.7 94 1018.3 3.8 NE 5.4 0.0 0.0
01:48 12.6 11.7 94 1018.3 3.1 NE 5.4 0.0 0.0
01:49 12.6 11.7 94 1018.4 3.8 NE 5.4 0.0 0.0
01:50 12.6 11.7 94 1018.5 3.1 NE 5.4 0.0 0.0
01:52 12.6 11.7 94 1018.5 3.1 NE 5.4 0.0 0.0
01:53 12.6 11.7 94 1018.4 3.8 NE 5.4 0.0 0.0
01:54 12.6 11.7 94 1018.3 3.1 NE 5.4 0.0 0.0
01:56 12.6 11.7 94 1018.3 3.8 NE 4.5 0.0 0.0
01:57 12.6 11.7 94 1018.3 3.8 NE 3.8 0.0 0.0
01:58 12.6 11.7 94 1018.4 3.8 NE 4.5 0.0 0.0
02:00 12.6 11.7 94 1018.3 3.1 NE 4.5 0.0 0.0
02:01 12.6 11.7 94 1018.2 3.1 NE 4.5 0.0 0.0
02:02 12.6 11.7 94 1018.2 3.1 NE 4.5 0.0 0.0
02:04 12.6 11.7 94 1018.3 3.1 NE 4.5 0.0 0.0
02:05 12.6 11.7 94 1018.3 3.1 NE 4.5 0.0 0.0
02:06 12.6 11.7 94 1018.3 4.5 NE 4.5 0.0 0.0
02:07 12.6 11.7 94 1018.2 3.1 NE 4.5 0.0 0.0
02:09 12.6 11.7 94 1018.2 3.1 NE 4.5 0.0 0.0
02:10 12.6 11.7 94 1018.2 2.2 N 4.5 0.0 0.0
02:18 12.6 11.8 95 1018.3 3.1 N 3.8 0.0 0.0
02:21 12.6 11.8 95 1018.2 3.8 N 4.5 0.0 0.0
02:22 12.6 11.8 95 1018.2 4.5 N 4.5 0.0 0.0
02:24 12.6 11.8 95 1018.2 4.5 NE 5.4 0.0 0.0
02:25 12.6 11.8 95 1018.1 4.5 NE 5.4 0.0 0.0
02:26 12.6 11.8 95 1018.2 4.5 N 5.4 0.0 0.0
02:28 12.6 11.8 95 1018.2 5.4 N 5.4 0.0 0.0
02:29 12.6 11.8 95 1018.2 3.8 NE 5.4 0.0 0.0
02:30 12.6 11.8 95 1018.2 4.5 NE 5.4 0.0 0.0
02:31 12.6 11.8 95 1018.2 3.8 N 5.4 0.0 0.0
02:37 12.6 11.8 95 1018.3 4.5 N 5.4 0.0 0.0
02:39 12.6 11.8 95 1018.2 3.1 N 4.5 0.0 0.0
07:01 12.6 12.5 99 1018.3 3.1 N 4.5 0.0 0.0
07:02 12.6 12.5 99 1018.1 2.2 N 4.5 0.0 0.0
07:03 12.6 12.5 99 1018.3 3.1 E 4.5 0.0 0.0
07:04 12.6 12.5 99 1018.3 3.1 NE 4.5 0.0 0.0
07:05 12.6 12.5 99 1018.3 3.1 NE 4.5 0.0 0.0
07:06 12.6 12.5 99 1018.3 3.1 NE 4.5 0.0 0.0
02:40 12.5 11.7 95 1018.1 3.8 N 4.5 0.0 0.0
02:41 12.5 11.7 95 1018.2 3.1 NE 4.5 0.0 0.0
02:42 12.5 11.7 95 1018.2 4.5 N 4.5 0.0 0.0
02:43 12.5 11.7 95 1018.2 4.5 N 4.5 0.0 0.0
02:44 12.5 11.7 95 1018.1 3.8 N 4.5 0.0 0.0
06:56 12.5 12.4 99 1018.2 2.2 N 3.8 0.0 0.0
06:57 12.5 12.4 99 1018.2 2.2 N 3.8 0.0 0.0
06:58 12.5 12.4 99 1018.2 4.5 N 4.5 0.0 0.0
06:59 12.5 12.4 99 1018.3 1.6 N 4.5 0.0 0.0
07:00 12.5 12.4 99 1018.2 3.8 N 4.5 0.0 0.0
02:45 12.4 11.6 95 1018.2 3.8 N 4.5 0.0 0.0
02:46 12.4 11.6 95 1018.1 3.1 N 4.5 0.0 0.0
02:47 12.4 11.6 95 1018.2 3.8 N 4.5 0.0 0.0
02:48 12.4 11.6 95 1018.2 3.1 N 4.5 0.0 0.0
02:49 12.4 11.6 95 1018.2 4.5 NE 4.5 0.0 0.0
02:51 12.4 11.6 95 1018.1 3.8 NE 4.5 0.0 0.0
04:13 12.4 11.8 96 1017.8 2.2 NE 4.5 0.0 0.0
04:22 12.4 11.9 97 1017.9 2.2 NE 3.1 0.0 0.0
04:26 12.4 11.9 97 1017.8 1.6 NE 2.2 0.0 0.0
04:29 12.4 11.9 97 1017.8 1.6 NE 2.2 0.0 0.0
04:33 12.4 11.9 97 1017.8 2.2 NE 3.1 0.0 0.0
04:38 12.4 11.9 97 1017.9 0.7 NE 3.1 0.0 0.0
06:52 12.4 12.1 98 1018.1 2.2 N 4.5 0.0 0.0
06:53 12.4 12.1 98 1018.3 3.1 N 4.5 0.0 0.0
06:54 12.4 12.1 98 1018.3 3.1 N 4.5 0.0 0.0
06:55 12.4 12.1 98 1018.2 3.1 N 4.5 0.0 0.0
02:52 12.3 11.5 95 1018.1 3.1 NE 4.5 0.0 0.0
02:53 12.3 11.5 95 1018.1 2.2 NE 4.5 0.0 0.0
02:54 12.3 11.5 95 1018.1 2.2 NE 4.5 0.0 0.0
02:55 12.3 11.5 95 1018.2 3.1 NE 4.5 0.0 0.0
02:56 12.3 11.5 95 1018.0 3.1 N 4.5 0.0 0.0
03:59 12.3 11.7 96 1017.8 3.1 NE 4.5 0.0 0.0
04:00 12.3 11.7 96 1017.7 2.2 NE 4.5 0.0 0.0
04:01 12.3 11.7 96 1017.8 2.2 NE 4.5 0.0 0.0
04:02 12.3 11.7 96 1017.9 3.1 NE 4.5 0.0 0.0
04:03 12.3 11.7 96 1017.8 1.6 NE 4.5 0.0 0.0
04:04 12.3 11.7 96 1017.8 4.5 NE 4.5 0.0 0.0
04:06 12.3 11.7 96 1017.9 0.7 NE 4.5 0.0 0.0
04:07 12.3 11.7 96 1017.8 3.1 NE 4.5 0.0 0.0
04:08 12.3 11.7 96 1017.8 0.7 NE 4.5 0.0 0.0
04:09 12.3 11.7 96 1017.8 3.1 NE 4.5 0.0 0.0
04:11 12.3 11.7 96 1017.9 2.2 NE 4.5 0.0 0.0
04:12 12.3 11.7 96 1017.9 2.2 NE 4.5 0.0 0.0
04:14 12.3 11.7 96 1018.0 2.2 NE 3.8 0.0 0.0
04:15 12.3 11.8 97 1017.9 3.1 NE 3.1 0.0 0.0
04:16 12.3 11.7 96 1017.8 2.2 NE 3.1 0.0 0.0
04:17 12.3 11.7 96 1017.8 2.2 NE 3.1 0.0 0.0
04:18 12.3 11.8 97 1017.8 2.2 NE 3.1 0.0 0.0
04:20 12.3 11.8 97 1017.9 1.6 NE 3.1 0.0 0.0
04:21 12.3 11.8 97 1017.9 1.6 NE 3.1 0.0 0.0
04:23 12.3 11.8 97 1018.0 1.6 NE 3.1 0.0 0.0
04:24 12.3 11.8 97 1017.8 1.6 NE 3.1 0.0 0.0
04:25 12.3 11.8 97 1017.8 1.6 NE 3.1 0.0 0.0
04:27 12.3 11.8 97 1017.9 2.2 NE 2.2 0.0 0.0
04:28 12.3 11.8 97 1018.0 1.6 NE 2.2 0.0 0.0
04:30 12.3 11.8 97 1017.9 2.2 NE 2.2 0.0 0.0
04:31 12.3 11.8 97 1018.0 3.1 NE 3.1 0.0 0.0
04:32 12.3 11.8 97 1017.8 3.1 NE 3.1 0.0 0.0
04:34 12.3 11.8 97 1017.8 2.2 NE 3.1 0.0 0.0
04:35 12.3 11.8 97 1017.8 0.7 NE 3.1 0.0 0.0
04:36 12.3 11.8 97 1017.9 2.2 NE 3.1 0.0 0.0
04:39 12.3 11.8 97 1017.8 2.2 NE 3.1 0.0 0.0
04:41 12.3 11.8 97 1018.0 3.1 NE 3.1 0.0 0.0
04:42 12.3 11.8 97 1018.0 3.1 NE 3.1 0.0 0.0
04:43 12.3 11.8 97 1017.9 2.2 NE 3.1 0.0 0.0
04:44 12.3 11.8 97 1017.7 1.6 NE 3.1 0.0 0.0
04:45 12.3 11.8 97 1017.9 0.7 NE 3.1 0.0 0.0
04:46 12.3 11.8 97 1017.9 2.2 NE 3.1 0.0 0.0
04:47 12.3 11.8 97 1017.9 1.6 NE 3.8 0.0 0.0
04:48 12.3 11.8 97 1017.9 2.2 NE 3.8 0.0 0.0
04:49 12.3 11.8 97 1017.8 0.7 NE 3.8 0.0 0.0
04:50 12.3 11.8 97 1017.9 1.6 NE 3.8 0.0 0.0
04:51 12.3 11.8 97 1017.9 1.6 NE 3.8 0.0 0.0
04:52 12.3 11.8 97 1018.0 3.1 NE 3.8 0.0 0.0
04:53 12.3 11.8 97 1017.8 1.6 NE 3.8 0.0 0.0
04:54 12.3 11.8 97 1017.9 1.6 NE 3.8 0.0 0.0
04:55 12.3 11.8 97 1017.9 2.2 NE 3.8 0.0 0.0
04:56 12.3 11.8 97 1018.0 1.6 NE 3.8 0.0 0.0
04:57 12.3 11.8 97 1017.9 1.6 NE 3.1 0.0 0.0
04:58 12.3 11.8 97 1018.0 2.2 NE 3.1 0.0 0.0
06:48 12.3 12.0 98 1018.2 2.2 NE 5.4 0.0 0.0
06:49 12.3 12.0 98 1018.3 2.2 NE 5.4 0.0 0.0
06:50 12.3 12.0 98 1018.2 2.2 NE 5.4 0.0 0.0
06:51 12.3 12.0 98 1018.3 3.1 N 4.5 0.0 0.0
02:57 12.2 11.4 95 1018.0 3.8 N 4.5 0.0 0.0
02:58 12.2 11.4 95 1018.1 3.1 N 4.5 0.0 0.0
02:59 12.2 11.4 95 1018.2 2.2 N 4.5 0.0 0.0
03:00 12.2 11.4 95 1018.2 2.2 N 3.8 0.0 0.0
03:01 12.2 11.4 95 1018.1 2.2 N 3.8 0.0 0.0
03:02 12.2 11.4 95 1018.0 2.2 N 3.8 0.0 0.0
03:04 12.2 11.4 95 1018.0 2.2 N 3.8 0.0 0.0
03:05 12.2 11.4 95 1018.1 2.2 N 3.8 0.0 0.0
03:06 12.2 11.4 95 1018.0 2.2 N 3.8 0.0 0.0
03:07 12.2 11.4 95 1018.0 2.2 N 3.1 0.0 0.0
03:09 12.2 11.4 95 1018.0 2.2 N 2.2 0.0 0.0
03:50 12.2 11.6 96 1017.8 1.6 NE 3.8 0.0 0.0
03:51 12.2 11.6 96 1017.9 1.6 NE 3.8 0.0 0.0
03:53 12.2 11.6 96 1017.8 2.2 NE 3.8 0.0 0.0
03:54 12.2 11.6 96 1017.8 3.1 NE 3.8 0.0 0.0
03:55 12.2 11.6 96 1017.9 3.1 NE 3.8 0.0 0.0
03:56 12.2 11.6 96 1017.8 4.5 NE 4.5 0.0 0.0
03:57 12.2 11.6 96 1017.9 3.8 NE 4.5 0.0 0.0
03:58 12.2 11.6 96 1017.9 3.1 NE 4.5 0.0 0.0
04:59 12.2 11.7 97 1017.9 1.6 NE 3.1 0.0 0.0
05:00 12.2 11.7 97 1018.0 1.6 NE 3.1 0.0 0.0
05:01 12.2 11.7 97 1017.8 1.6 NE 3.1 0.0 0.0
05:02 12.2 11.7 97 1017.9 2.2 NE 3.1 0.0 0.0
05:03 12.2 11.7 97 1018.0 1.6 NE 2.2 0.0 0.0
05:04 12.2 11.7 97 1017.9 1.6 NE 2.2 0.0 0.0
06:38 12.2 11.9 98 1018.2 3.1 NE 5.4 0.0 0.0
06:39 12.2 11.9 98 1018.2 3.8 NE 5.4 0.0 0.0
06:40 12.2 11.9 98 1018.2 3.8 NE 5.4 0.0 0.0
06:41 12.2 11.9 98 1018.2 3.1 NE 5.4 0.0 0.0
06:42 12.2 11.9 98 1018.1 3.1 NE 5.4 0.0 0.0
06:44 12.2 11.9 98 1018.3 2.2 NE 5.4 0.0 0.0
06:45 12.2 11.9 98 1018.1 3.8 N 5.4 0.0 0.0
06:46 12.2 11.9 98 1018.2 4.5 NE 5.4 0.0 0.0
06:47 12.2 11.9 98 1018.3 2.2 NE 5.4 0.0 0.0
03:11 12.1 11.3 95 1018.0 1.6 N 2.2 0.0 0.0
03:13 12.1 11.3 95 1018.1 1.6 N 2.2 0.0 0.0
03:14 12.1 11.3 95 1018.1 1.6 N 2.2 0.0 0.0
03:17 12.1 11.3 95 1018.0 0.7 N 2.2 0.0 0.0
03:18 12.1 11.3 95 1018.1 3.1 N 3.1 0.0 0.0
03:32 12.1 11.5 96 1018.0 1.6 N 3.1 0.0 0.0
03:33 12.1 11.5 96 1018.0 1.6 N 3.1 0.0 0.0
03:34 12.1 11.5 96 1018.1 3.8 N 3.8 0.0 0.0
03:35 12.1 11.5 96 1018.0 2.2 N 3.8 0.0 0.0
03:36 12.1 11.5 96 1017.9 2.2 N 3.8 0.0 0.0
03:37 12.1 11.5 96 1017.9 3.1 N 3.8 0.0 0.0
03:38 12.1 11.5 96 1017.8 3.1 N 3.8 0.0 0.0
03:40 12.1 11.5 96 1017.9 1.6 NE 3.8 0.0 0.0
03:41 12.1 11.5 96 1018.0 1.6 NE 3.8 0.0 0.0
03:42 12.1 11.5 96 1017.9 1.6 NE 3.8 0.0 0.0
03:43 12.1 11.5 96 1017.9 1.6 NE 3.8 0.0 0.0
03:44 12.1 11.5 96 1017.9 3.8 NE 3.8 0.0 0.0
03:45 12.1 11.5 96 1018.0 3.1 NE 3.8 0.0 0.0
03:46 12.1 11.5 96 1017.9 1.6 NE 3.8 0.0 0.0
03:47 12.1 11.5 96 1017.9 1.6 NE 3.8 0.0 0.0
03:48 12.1 11.5 96 1017.9 3.8 NE 3.8 0.0 0.0
03:49 12.1 11.5 96 1017.8 1.6 NE 3.8 0.0 0.0
05:05 12.1 11.6 97 1017.8 1.6 NE 2.2 0.0 0.0
05:06 12.1 11.6 97 1018.0 1.6 NE 2.2 0.0 0.0
05:07 12.1 11.6 97 1017.8 1.6 NE 2.2 0.0 0.0
05:08 12.1 11.6 97 1017.9 1.6 NE 2.2 0.0 0.0
05:09 12.1 11.6 97 1018.0 1.6 NE 2.2 0.0 0.0
05:10 12.1 11.6 97 1017.9 1.6 NE 2.2 0.0 0.0
05:11 12.1 11.6 97 1017.9 1.6 NE 2.2 0.0 0.0
06:34 12.1 11.8 98 1018.2 4.5 NE 5.4 0.0 0.0
06:35 12.1 11.8 98 1018.2 3.8 N 5.4 0.0 0.0
06:36 12.1 11.8 98 1018.1 3.1 NE 5.4 0.0 0.0
06:37 12.1 11.8 98 1018.3 3.1 NE 5.4 0.0 0.0
03:16 12.0 11.2 95 1018.1 2.2 N 2.2 0.0 0.0
03:19 12.0 11.2 95 1018.1 2.2 N 3.1 0.0 0.0
03:20 12.0 11.2 95 1018.0 2.2 N 3.1 0.0 0.0
03:21 12.0 11.2 95 1018.1 1.6 N 3.1 0.0 0.0
03:22 12.0 11.2 95 1018.1 3.1 N 3.1 0.0 0.0
03:23 12.0 11.2 95 1018.1 2.2 N 3.1 0.0 0.0
03:24 12.0 11.2 95 1018.0 2.2 N 3.1 0.0 0.0
03:25 12.0 11.2 95 1018.2 3.1 N 3.1 0.0 0.0
03:27 12.0 11.2 95 1018.1 2.2 N 3.1 0.0 0.0
03:28 12.0 11.4 96 1018.1 1.6 N 3.1 0.0 0.0
03:29 12.0 11.4 96 1018.0 2.2 N 3.1 0.0 0.0
03:30 12.0 11.2 95 1018.1 2.2 N 3.1 0.0 0.0
03:31 12.0 11.2 95 1018.0 2.2 N 3.1 0.0 0.0
05:12 12.0 11.5 97 1018.0 1.6 NE 1.6 0.0 0.0
05:13 12.0 11.5 97 1018.0 1.6 NE 2.2 0.0 0.0
05:14 12.0 11.5 97 1018.0 1.6 NE 2.2 0.0 0.0
06:29 12.0 11.5 97 1018.3 3.1 N 4.5 0.0 0.0
06:30 12.0 11.5 97 1018.2 3.8 NE 4.5 0.0 0.0
06:31 12.0 11.7 98 1018.3 3.8 N 4.5 0.0 0.0
06:32 12.0 11.7 98 1018.0 5.4 NE 5.4 0.0 0.0
06:33 12.0 11.7 98 1018.1 4.5 NE 5.4 0.0 0.0
05:15 11.9 11.4 97 1017.8 1.6 NE 2.2 0.0 0.0
05:16 11.9 11.4 97 1017.9 2.2 NE 2.2 0.0 0.0
05:17 11.9 11.4 97 1017.9 1.6 NE 2.2 0.0 0.0
05:18 11.9 11.4 97 1017.8 1.6 NE 2.2 0.0 0.0
05:19 11.9 11.4 97 1017.7 1.6 NE 2.2 0.0 0.0
05:20 11.9 11.4 97 1017.8 1.6 NE 2.2 0.0 0.0
06:25 11.9 11.4 97 1018.3 2.2 NE 4.5 0.0 0.0
06:26 11.9 11.4 97 1018.2 3.8 N 4.5 0.0 0.0
06:27 11.9 11.4 97 1018.2 4.5 N 4.5 0.0 0.0
06:28 11.9 11.6 98 1018.2 3.1 N 4.5 0.0 0.0
05:21 11.8 11.3 97 1017.8 1.6 NE 2.2 0.0 0.0
05:22 11.8 11.3 97 1017.8 1.6 NE 2.2 0.0 0.0
05:23 11.8 11.3 97 1017.8 1.6 NE 2.2 0.0 0.0
05:24 11.8 11.3 97 1017.9 1.6 NE 2.2 0.0 0.0
05:25 11.8 11.3 97 1017.8 1.6 NE 2.2 0.0 0.0
06:22 11.8 11.3 97 1018.3 4.5 NE 4.5 0.0 0.0
06:23 11.8 11.3 97 1018.2 3.1 N 4.5 0.0 0.0
06:24 11.8 11.3 97 1018.2 3.1 NE 4.5 0.0 0.0
05:26 11.7 11.2 97 1017.9 1.6 NE 2.2 0.0 0.0
05:27 11.7 11.2 97 1017.9 1.6 NE 1.6 0.0 0.0
05:28 11.7 11.2 97 1017.8 1.6 NE 1.6 0.0 0.0
05:29 11.7 11.2 97 1017.8 0.7 NE 1.6 0.0 0.0
05:30 11.7 11.2 97 1017.8 0.7 NE 1.6 0.0 0.0
05:31 11.7 11.2 97 1017.9 1.6 NE 1.6 0.0 0.0
05:32 11.7 11.2 97 1017.8 0.7 NE 1.6 0.0 0.0
06:16 11.7 11.2 97 1018.2 3.1 N 4.5 0.0 0.0
06:18 11.7 11.2 97 1018.2 3.1 N 4.5 0.0 0.0
06:19 11.7 11.2 97 1018.2 3.1 NE 4.5 0.0 0.0
06:20 11.7 11.2 97 1018.1 3.1 NE 4.5 0.0 0.0
06:21 11.7 11.2 97 1018.2 3.1 NE 4.5 0.0 0.0
05:33 11.6 11.1 97 1017.8 1.6 NE 1.6 0.0 0.0
05:34 11.6 11.1 97 1017.9 1.6 NE 1.6 0.0 0.0
05:35 11.6 11.1 97 1018.0 0.7 NE 1.6 0.0 0.0
05:36 11.6 11.1 97 1018.0 0.7 NE 1.6 0.0 0.0
05:37 11.6 11.1 97 1018.0 1.6 NE 1.6 0.0 0.0
05:38 11.6 11.1 97 1018.0 1.6 NE 1.6 0.0 0.0
05:39 11.6 11.1 97 1018.0 0.7 NE 1.6 0.0 0.0
06:08 11.6 11.1 97 1018.0 0.7 NE 2.2 0.0 0.0
06:09 11.6 11.1 97 1018.1 1.6 NE 2.2 0.0 0.0
06:11 11.6 11.1 97 1018.1 1.6 NE 2.2 0.0 0.0
06:12 11.6 11.1 97 1018.1 3.8 N 3.8 0.0 0.0
06:14 11.6 11.1 97 1018.2 2.2 N 3.8 0.0 0.0
06:15 11.6 11.1 97 1018.2 4.5 N 4.5 0.0 0.0
06:17 11.6 11.1 97 1018.2 1.6 N 4.5 0.0 0.0
05:40 11.5 11.0 97 1017.9 1.6 NE 1.6 0.0 0.0
05:42 11.5 11.0 97 1018.0 2.2 NE 2.2 0.0 0.0
05:43 11.5 11.0 97 1017.9 1.6 NE 2.2 0.0 0.0
05:44 11.5 11.0 97 1018.1 0.7 NE 2.2 0.0 0.0
05:45 11.5 11.0 97 1018.0 1.6 NE 2.2 0.0 0.0
05:46 11.5 11.0 97 1018.0 1.6 NE 2.2 0.0 0.0
05:47 11.5 11.0 97 1018.0 1.6 NE 2.2 0.0 0.0
05:48 11.5 11.0 97 1017.9 2.2 NE 2.2 0.0 0.0
05:49 11.5 11.0 97 1018.0 2.2 NE 2.2 0.0 0.0
05:50 11.5 11.0 97 1018.1 2.2 NE 2.2 0.0 0.0
05:51 11.5 11.0 97 1018.0 1.6 NE 2.2 0.0 0.0
05:52 11.5 11.0 97 1018.1 1.6 NE 2.2 0.0 0.0
05:53 11.5 11.0 97 1018.1 1.6 NE 2.2 0.0 0.0
05:54 11.5 11.0 97 1018.0 1.6 NE 2.2 0.0 0.0
05:55 11.5 11.0 97 1018.0 1.6 NE 2.2 0.0 0.0
05:56 11.5 11.0 97 1018.1 3.1 NE 3.1 0.0 0.0
05:57 11.5 11.0 97 1018.1 1.6 NE 3.1 0.0 0.0
05:58 11.5 11.0 97 1018.1 1.6 NE 3.1 0.0 0.0
05:59 11.5 11.0 97 1018.0 2.2 NE 3.1 0.0 0.0
06:00 11.5 11.0 97 1018.2 1.6 NE 3.1 0.0 0.0
06:01 11.5 11.0 97 1018.0 1.6 NE 3.1 0.0 0.0
06:02 11.5 11.0 97 1018.1 1.6 NE 3.1 0.0 0.0
06:03 11.5 11.0 97 1018.0 0.0 NE 3.1 0.0 0.0
06:04 11.5 11.0 97 1018.1 1.6 NE 3.1 0.0 0.0
06:05 11.5 11.0 97 1017.9 2.2 NE 3.1 0.0 0.0
06:06 11.5 11.0 97 1018.0 2.2 NE 3.1 0.0 0.0
06:07 11.5 11.0 97 1018.1 1.6 NE 2.2 0.0 0.0

UK - WEATHER STATION TOPSITES - UK World Weather Websites

This is a private weather station, never base important decisions or events on data from this weather station. Although every effort has been made to make the data as accurate as possible it does not meet MetOffice standards. It is proved as a guide of local weather conditions. We accept no liability for any loss which may arise from use of the data.

Copyright © Carnkie Weather 2009 - 2018.